DAL19 KLAX-RJTT
Flight info
| Callsign | DAL19 |
|---|---|
| Flight time | N/A |
| Altitude | 36000 |
| Route | SUMMR2 MCKEY DCT LIBBO DCT RAINS DCT SHENU DCT 42N130W 46N140W 49N150W/N0492F380 50N160W 50N170W 49N180E 46N170E/N0483F400 43N160E EMRON OTR9 AVBET Y809 POROT Y811 NOGIX Y807 LALID Y804 INUBO Y108 MESSE |
| Aircraft | A359/H-SDE2E3GHIJ1J3J4J5LM1ORWXY/LB1D1 |
Departure
| Time | N/A |
|---|---|
| Airport | Los Angeles International Airport (KLAX) |
Arrival
| Time | 2026-05-08 04:51 |
|---|---|
| Airport | Tokyo Haneda International Airport (RJTT) |
| Time | Latitude | Longitude | Altitude | Speed | Heading |
|---|---|---|---|---|---|
| 2026-05-07 19:12 | 47.43901 | -122.30427 | 391 ft | 0 kts | 119° |
| 2026-05-07 19:18 | 47.43902 | -122.30428 | 391 ft | 1 kts | 119° |
| 2026-05-07 19:18 | 47.43914 | -122.30458 | 391 ft | 4 kts | 120° |
| 2026-05-07 19:19 | 47.43925 | -122.30493 | 391 ft | 4 kts | 104° |
| 2026-05-07 19:19 | 47.43924 | -122.30526 | 390 ft | 4 kts | 43° |
| 2026-05-07 19:19 | 47.43902 | -122.30542 | 390 ft | 4 kts | 6° |
| 2026-05-07 19:19 | 47.43892 | -122.30544 | 389 ft | 0 kts | 0° |
| 2026-05-07 19:21 | 47.43893 | -122.30544 | 389 ft | 1 kts | 0° |
| 2026-05-07 19:21 | 47.43932 | -122.30543 | 390 ft | 9 kts | 0° |
| 2026-05-07 19:21 | 47.43981 | -122.30578 | 390 ft | 9 kts | 314° |
| 2026-05-07 19:22 | 47.44072 | -122.30633 | 391 ft | 19 kts | 356° |
| 2026-05-07 19:22 | 47.44198 | -122.30634 | 393 ft | 17 kts | 0° |
| 2026-05-07 19:22 | 47.44308 | -122.30632 | 393 ft | 15 kts | 1° |
| 2026-05-07 19:22 | 47.44402 | -122.30630 | 400 ft | 13 kts | 1° |
| 2026-05-07 19:23 | 47.44513 | -122.30631 | 400 ft | 19 kts | 360° |
| 2026-05-07 19:23 | 47.44641 | -122.30630 | 407 ft | 17 kts | 0° |
| 2026-05-07 19:23 | 47.44754 | -122.30629 | 405 ft | 15 kts | 0° |
| 2026-05-07 19:23 | 47.44850 | -122.30628 | 411 ft | 14 kts | 0° |
| 2026-05-07 19:24 | 47.44963 | -122.30627 | 408 ft | 24 kts | 0° |
| 2026-05-07 19:24 | 47.45142 | -122.30626 | 416 ft | 25 kts | 0° |
| 2026-05-07 19:24 | 47.45304 | -122.30624 | 419 ft | 24 kts | 0° |
| 2026-05-07 19:24 | 47.45470 | -122.30623 | 424 ft | 23 kts | 0° |
| 2026-05-07 19:25 | 47.45623 | -122.30621 | 430 ft | 23 kts | 0° |
| 2026-05-07 19:25 | 47.45799 | -122.30620 | 427 ft | 27 kts | 0° |
| 2026-05-07 19:25 | 47.45970 | -122.30619 | 437 ft | 25 kts | 0° |
| 2026-05-07 19:25 | 47.46142 | -122.30617 | 447 ft | 27 kts | 0° |
| 2026-05-07 19:26 | 47.46271 | -122.30616 | 447 ft | 17 kts | 0° |
| 2026-05-07 19:26 | 47.46360 | -122.30639 | 449 ft | 13 kts | 319° |
| 2026-05-07 19:26 | 47.46359 | -122.30742 | 448 ft | 12 kts | 233° |
| 2026-05-07 19:26 | 47.46288 | -122.30777 | 447 ft | 8 kts | 181° |
| 2026-05-07 19:27 | 47.46286 | -122.30777 | 447 ft | 0 kts | 181° |
| 2026-05-07 19:27 | 47.46267 | -122.30777 | 447 ft | 18 kts | 181° |
| 2026-05-07 19:28 | 47.45905 | -122.30782 | 432 ft | 85 kts | 180° |
| 2026-05-07 19:28 | 47.45107 | -122.30786 | 413 ft | 143 kts | 180° |
| 2026-05-07 19:28 | 47.44002 | -122.30803 | 679 ft | 166 kts | 181° |
| 2026-05-07 19:28 | 47.42845 | -122.30800 | 1305 ft | 167 kts | 180° |
| 2026-05-07 19:29 | 47.41675 | -122.30799 | 1798 ft | 174 kts | 181° |
| 2026-05-07 19:29 | 47.40412 | -122.30829 | 2018 ft | 189 kts | 182° |
| 2026-05-07 19:29 | 47.39036 | -122.30882 | 2230 ft | 207 kts | 182° |
| 2026-05-07 19:29 | 47.37543 | -122.30944 | 2509 ft | 221 kts | 182° |
| 2026-05-07 19:30 | 47.35965 | -122.31003 | 2735 ft | 241 kts | 182° |
| 2026-05-07 19:30 | 47.34245 | -122.31163 | 3097 ft | 254 kts | 190° |
| 2026-05-07 19:30 | 47.32635 | -122.32235 | 3591 ft | 260 kts | 221° |
| 2026-05-07 19:30 | 47.31673 | -122.34462 | 4136 ft | 262 kts | 255° |
| 2026-05-07 19:31 | 47.31318 | -122.37108 | 4737 ft | 265 kts | 263° |
| 2026-05-07 19:31 | 47.31065 | -122.39677 | 5342 ft | 267 kts | 263° |
| 2026-05-07 19:31 | 47.30797 | -122.42354 | 5971 ft | 267 kts | 263° |
| 2026-05-07 19:31 | 47.30691 | -122.45087 | 6618 ft | 267 kts | 272° |
| 2026-05-07 19:32 | 47.30759 | -122.47830 | 7210 ft | 270 kts | 274° |
| 2026-05-07 19:32 | 47.30850 | -122.50612 | 7762 ft | 274 kts | 274° |
| 2026-05-07 19:32 | 47.30938 | -122.53440 | 8360 ft | 278 kts | 273° |
| 2026-05-07 19:32 | 47.31023 | -122.56303 | 8962 ft | 282 kts | 273° |
| 2026-05-07 19:33 | 47.31106 | -122.59207 | 9544 ft | 285 kts | 273° |
| 2026-05-07 19:33 | 47.31188 | -122.62137 | 10095 ft | 288 kts | 274° |
| 2026-05-07 19:33 | 47.31270 | -122.65111 | 10372 ft | 302 kts | 273° |
| 2026-05-07 19:33 | 47.31356 | -122.68276 | 10597 ft | 317 kts | 273° |
| 2026-05-07 19:34 | 47.31446 | -122.71592 | 10826 ft | 331 kts | 273° |
| 2026-05-07 19:34 | 47.31520 | -122.75053 | 11055 ft | 345 kts | 270° |
| 2026-05-07 19:34 | 47.31152 | -122.78605 | 11264 ft | 359 kts | 253° |
| 2026-05-07 19:34 | 47.30275 | -122.82113 | 11478 ft | 371 kts | 249° |
| 2026-05-07 19:35 | 47.29306 | -122.85697 | 11739 ft | 381 kts | 249° |
| 2026-05-07 19:35 | 47.28321 | -122.89345 | 12158 ft | 385 kts | 249° |
| 2026-05-07 19:35 | 47.27330 | -122.93021 | 12631 ft | 388 kts | 249° |
| 2026-05-07 19:35 | 47.26332 | -122.96730 | 13113 ft | 391 kts | 249° |
| 2026-05-07 19:36 | 47.25343 | -123.00412 | 13573 ft | 393 kts | 249° |
| 2026-05-07 19:36 | 47.24337 | -123.04165 | 14037 ft | 395 kts | 249° |
| 2026-05-07 19:36 | 47.23326 | -123.07941 | 14443 ft | 398 kts | 249° |
| 2026-05-07 19:36 | 47.22312 | -123.11738 | 14844 ft | 400 kts | 249° |
| 2026-05-07 19:37 | 47.21295 | -123.15557 | 15246 ft | 402 kts | 249° |
| 2026-05-07 19:37 | 47.20274 | -123.19394 | 15658 ft | 404 kts | 249° |
| 2026-05-07 19:37 | 47.19248 | -123.23255 | 16073 ft | 405 kts | 249° |
| 2026-05-07 19:37 | 47.18225 | -123.27113 | 16456 ft | 407 kts | 249° |
| 2026-05-07 19:38 | 47.17194 | -123.31009 | 16853 ft | 410 kts | 249° |
| 2026-05-07 19:38 | 47.16176 | -123.34869 | 17234 ft | 412 kts | 249° |
| 2026-05-07 19:38 | 47.15139 | -123.38805 | 17642 ft | 414 kts | 249° |
| 2026-05-07 19:38 | 47.14100 | -123.42757 | 18031 ft | 416 kts | 249° |
| 2026-05-07 19:39 | 47.13060 | -123.46721 | 18421 ft | 418 kts | 249° |
| 2026-05-07 19:39 | 47.12006 | -123.50715 | 18773 ft | 420 kts | 249° |
| 2026-05-07 19:39 | 47.10938 | -123.54719 | 19112 ft | 422 kts | 249° |
| 2026-05-07 19:39 | 47.09870 | -123.58716 | 19544 ft | 422 kts | 249° |
| 2026-05-07 19:40 | 47.08796 | -123.62734 | 19934 ft | 423 kts | 249° |
| 2026-05-07 19:40 | 47.07731 | -123.66717 | 20280 ft | 425 kts | 249° |
| 2026-05-07 19:40 | 47.06650 | -123.70754 | 20641 ft | 427 kts | 249° |
| 2026-05-07 19:40 | 47.05557 | -123.74828 | 21006 ft | 429 kts | 249° |
| 2026-05-07 19:41 | 47.04461 | -123.78908 | 21393 ft | 431 kts | 250° |
| 2026-05-07 19:41 | 47.03359 | -123.83001 | 21758 ft | 433 kts | 250° |
| 2026-05-07 19:41 | 47.02252 | -123.87110 | 22125 ft | 435 kts | 250° |
| 2026-05-07 19:41 | 47.01137 | -123.91240 | 22487 ft | 437 kts | 250° |
| 2026-05-07 19:42 | 47.00017 | -123.95379 | 22921 ft | 437 kts | 250° |
| 2026-05-07 19:42 | 46.98908 | -123.99474 | 23289 ft | 439 kts | 250° |
| 2026-05-07 19:42 | 46.97784 | -124.03641 | 23638 ft | 441 kts | 251° |
| 2026-05-07 19:42 | 46.96859 | -124.07924 | 23957 ft | 442 kts | 258° |
| 2026-05-07 19:43 | 46.96402 | -124.12374 | 24271 ft | 442 kts | 267° |
| 2026-05-07 19:43 | 46.96475 | -124.16869 | 24592 ft | 444 kts | 277° |
| 2026-05-07 19:43 | 46.97076 | -124.21301 | 24919 ft | 445 kts | 285° |
| 2026-05-07 19:43 | 46.98081 | -124.25576 | 25255 ft | 447 kts | 291° |
| 2026-05-07 19:44 | 46.99333 | -124.29739 | 25595 ft | 449 kts | 294° |
| 2026-05-07 19:44 | 47.00710 | -124.33856 | 25938 ft | 451 kts | 296° |
| 2026-05-07 19:44 | 47.02106 | -124.37891 | 26257 ft | 453 kts | 296° |
| 2026-05-07 19:44 | 47.03527 | -124.42007 | 26606 ft | 454 kts | 295° |
| 2026-05-07 19:45 | 47.04929 | -124.46138 | 26925 ft | 456 kts | 295° |
| 2026-05-07 19:45 | 47.06325 | -124.50326 | 27253 ft | 457 kts | 295° |
| 2026-05-07 19:45 | 47.07641 | -124.54328 | 27560 ft | 459 kts | 294° |
| 2026-05-07 19:45 | 47.09019 | -124.58557 | 27861 ft | 460 kts | 294° |
| 2026-05-07 19:46 | 47.10395 | -124.62803 | 28177 ft | 462 kts | 294° |
| 2026-05-07 19:46 | 47.11778 | -124.67079 | 28464 ft | 464 kts | 294° |
| 2026-05-07 19:46 | 47.13163 | -124.71369 | 28748 ft | 466 kts | 294° |
| 2026-05-07 19:46 | 47.14529 | -124.75604 | 29004 ft | 467 kts | 294° |
| 2026-05-07 19:47 | 47.15920 | -124.79922 | 29274 ft | 469 kts | 294° |
| 2026-05-07 19:47 | 47.17316 | -124.84259 | 29525 ft | 470 kts | 294° |
| 2026-05-07 19:47 | 47.18712 | -124.88601 | 29905 ft | 469 kts | 294° |
| 2026-05-07 19:47 | 47.20102 | -124.92932 | 30302 ft | 467 kts | 294° |
| 2026-05-07 19:48 | 47.21483 | -124.97241 | 30624 ft | 466 kts | 294° |
| 2026-05-07 19:48 | 47.22849 | -125.01516 | 30937 ft | 465 kts | 294° |
| 2026-05-07 19:48 | 47.24212 | -125.05785 | 31232 ft | 464 kts | 294° |
| 2026-05-07 19:48 | 47.25571 | -125.10049 | 31540 ft | 462 kts | 294° |
| 2026-05-07 19:49 | 47.26922 | -125.14297 | 31834 ft | 461 kts | 294° |
| 2026-05-07 19:49 | 47.28228 | -125.18411 | 32106 ft | 460 kts | 293° |
| 2026-05-07 19:49 | 47.29576 | -125.22661 | 32387 ft | 459 kts | 293° |
| 2026-05-07 19:49 | 47.30898 | -125.26837 | 32675 ft | 458 kts | 293° |
| 2026-05-07 19:50 | 47.32238 | -125.31077 | 32979 ft | 456 kts | 293° |
| 2026-05-07 19:50 | 47.33560 | -125.35269 | 33233 ft | 455 kts | 293° |
| 2026-05-07 19:50 | 47.34881 | -125.39462 | 33336 ft | 457 kts | 292° |
| 2026-05-07 19:50 | 47.36206 | -125.43680 | 33515 ft | 457 kts | 292° |
| 2026-05-07 19:51 | 47.37524 | -125.47879 | 33795 ft | 455 kts | 292° |
| 2026-05-07 19:51 | 47.38849 | -125.52104 | 34040 ft | 454 kts | 292° |
| 2026-05-07 19:51 | 47.40160 | -125.56293 | 34256 ft | 453 kts | 292° |
| 2026-05-07 19:51 | 47.41463 | -125.60465 | 34451 ft | 452 kts | 292° |
| 2026-05-07 19:52 | 47.42752 | -125.64599 | 34654 ft | 451 kts | 292° |
| 2026-05-07 19:52 | 47.44038 | -125.68731 | 34842 ft | 450 kts | 292° |
| 2026-05-07 19:52 | 47.45324 | -125.72868 | 35015 ft | 449 kts | 292° |
| 2026-05-07 19:52 | 47.46545 | -125.76804 | 35186 ft | 448 kts | 292° |
| 2026-05-07 19:53 | 47.47831 | -125.80953 | 35347 ft | 447 kts | 292° |
| 2026-05-07 19:53 | 47.49120 | -125.85123 | 35524 ft | 446 kts | 292° |
| 2026-05-07 19:53 | 47.50400 | -125.89266 | 35676 ft | 445 kts | 292° |
| 2026-05-07 19:53 | 47.51663 | -125.93366 | 35823 ft | 444 kts | 292° |
| 2026-05-07 19:54 | 47.52918 | -125.97441 | 35961 ft | 443 kts | 292° |
| 2026-05-07 19:54 | 47.54190 | -126.01584 | 36096 ft | 442 kts | 291° |
| 2026-05-07 19:54 | 47.56703 | -126.09785 | 36124 ft | 446 kts | 291° |
| 2026-05-07 19:55 | 47.59257 | -126.18150 | 36191 ft | 449 kts | 291° |
| 2026-05-07 19:55 | 47.61774 | -126.26413 | 36192 ft | 448 kts | 291° |
| 2026-05-07 19:56 | 47.64262 | -126.34611 | 36193 ft | 448 kts | 291° |
| 2026-05-07 19:56 | 47.66743 | -126.42815 | 36189 ft | 449 kts | 291° |
| 2026-05-07 19:57 | 47.69252 | -126.51135 | 36195 ft | 449 kts | 291° |
| 2026-05-07 19:57 | 47.71776 | -126.59536 | 36195 ft | 449 kts | 291° |
| 2026-05-07 19:58 | 47.74222 | -126.67704 | 36195 ft | 449 kts | 290° |
| 2026-05-07 19:58 | 47.76701 | -126.76008 | 36192 ft | 449 kts | 290° |
| 2026-05-07 19:59 | 47.79186 | -126.84362 | 36192 ft | 449 kts | 290° |
| 2026-05-07 19:59 | 47.81652 | -126.92683 | 36190 ft | 450 kts | 290° |
| 2026-05-07 20:00 | 47.84086 | -127.00920 | 36199 ft | 451 kts | 290° |
| 2026-05-07 20:00 | 47.86545 | -127.09278 | 36190 ft | 455 kts | 290° |
| 2026-05-07 20:01 | 47.89076 | -127.17908 | 36187 ft | 458 kts | 290° |
| 2026-05-07 20:01 | 47.91625 | -127.26625 | 36193 ft | 460 kts | 289° |
| 2026-05-07 20:02 | 47.94167 | -127.35357 | 36185 ft | 463 kts | 290° |
| 2026-05-07 20:02 | 47.96726 | -127.44165 | 36193 ft | 465 kts | 289° |
| 2026-05-07 20:03 | 47.99285 | -127.53006 | 36184 ft | 466 kts | 289° |
| 2026-05-07 20:03 | 48.01805 | -127.61751 | 36193 ft | 467 kts | 289° |
| 2026-05-07 20:04 | 48.04357 | -127.70634 | 36194 ft | 467 kts | 289° |
| 2026-05-07 20:04 | 48.06780 | -127.79104 | 36194 ft | 467 kts | 289° |
| 2026-05-07 20:05 | 48.09206 | -127.87612 | 36194 ft | 467 kts | 289° |
| 2026-05-07 20:05 | 48.11575 | -127.95951 | 36194 ft | 467 kts | 289° |
| 2026-05-07 20:06 | 48.13957 | -128.04363 | 36197 ft | 467 kts | 289° |
| 2026-05-07 20:06 | 48.16331 | -128.12779 | 36197 ft | 466 kts | 289° |
| 2026-05-07 20:07 | 48.18779 | -128.21486 | 36189 ft | 466 kts | 289° |
| 2026-05-07 20:07 | 48.21244 | -128.30289 | 36197 ft | 467 kts | 289° |
| 2026-05-07 20:08 | 48.23576 | -128.38647 | 36216 ft | 467 kts | 289° |
| 2026-05-07 20:08 | 48.25861 | -128.46861 | 36200 ft | 468 kts | 289° |
| 2026-05-07 20:09 | 48.28138 | -128.55077 | 36200 ft | 468 kts | 289° |
| 2026-05-07 20:10 | 48.31752 | -128.68174 | 36205 ft | 468 kts | 288° |
| 2026-05-07 20:10 | 48.34231 | -128.77205 | 36205 ft | 468 kts | 288° |
| 2026-05-07 20:11 | 48.36707 | -128.86255 | 36207 ft | 468 kts | 288° |
| 2026-05-07 20:11 | 48.39158 | -128.95248 | 36207 ft | 468 kts | 288° |
| 2026-05-07 20:12 | 48.41618 | -129.04312 | 36207 ft | 468 kts | 288° |
| 2026-05-07 20:12 | 48.44071 | -129.13384 | 36207 ft | 468 kts | 288° |
| 2026-05-07 20:13 | 48.46519 | -129.22470 | 36219 ft | 468 kts | 288° |
| 2026-05-07 20:13 | 48.48944 | -129.31516 | 36211 ft | 469 kts | 288° |
| 2026-05-07 20:14 | 48.51387 | -129.40653 | 36211 ft | 470 kts | 288° |
| 2026-05-07 20:14 | 48.53821 | -129.49793 | 36213 ft | 470 kts | 288° |
| 2026-05-07 20:15 | 48.56251 | -129.58954 | 36213 ft | 470 kts | 288° |
| 2026-05-07 20:15 | 48.58675 | -129.68131 | 36217 ft | 472 kts | 288° |
| 2026-05-07 20:16 | 48.61087 | -129.77301 | 36216 ft | 473 kts | 288° |
| 2026-05-07 20:16 | 48.63514 | -129.86561 | 36219 ft | 474 kts | 287° |
| 2026-05-07 20:17 | 48.65937 | -129.95841 | 36219 ft | 474 kts | 287° |
| 2026-05-07 20:17 | 48.68351 | -130.05129 | 36222 ft | 474 kts | 287° |
| 2026-05-07 20:18 | 48.70741 | -130.14361 | 36222 ft | 475 kts | 287° |
| 2026-05-07 20:18 | 48.73143 | -130.23672 | 36224 ft | 475 kts | 286° |
| 2026-05-07 20:19 | 48.75535 | -130.32987 | 36220 ft | 474 kts | 286° |
| 2026-05-07 20:19 | 48.77919 | -130.42314 | 36224 ft | 474 kts | 286° |
| 2026-05-07 20:20 | 48.80283 | -130.51595 | 36221 ft | 475 kts | 286° |
| 2026-05-07 20:20 | 48.82656 | -130.60952 | 36217 ft | 475 kts | 286° |
| 2026-05-07 20:21 | 48.85024 | -130.70327 | 36218 ft | 476 kts | 285° |
| 2026-05-07 20:21 | 48.87385 | -130.79713 | 36225 ft | 476 kts | 285° |
| 2026-05-07 20:22 | 48.89722 | -130.89040 | 36231 ft | 476 kts | 285° |
| 2026-05-07 20:22 | 48.92074 | -130.98470 | 36226 ft | 477 kts | 285° |
| 2026-05-07 20:23 | 48.94420 | -131.07917 | 36225 ft | 477 kts | 285° |
| 2026-05-07 20:23 | 48.96759 | -131.17371 | 36226 ft | 478 kts | 285° |
| 2026-05-07 20:24 | 48.99076 | -131.26780 | 36226 ft | 478 kts | 284° |
| 2026-05-07 20:24 | 49.01409 | -131.36296 | 36216 ft | 481 kts | 284° |
| 2026-05-07 20:25 | 49.03744 | -131.45858 | 36231 ft | 482 kts | 284° |
| 2026-05-07 20:25 | 49.06077 | -131.55447 | 36223 ft | 483 kts | 284° |
| 2026-05-07 20:26 | 49.08388 | -131.64992 | 36219 ft | 483 kts | 284° |
| 2026-05-07 20:26 | 49.10708 | -131.74614 | 36232 ft | 484 kts | 284° |
| 2026-05-07 20:27 | 49.13023 | -131.84263 | 36226 ft | 485 kts | 284° |
| 2026-05-07 20:27 | 49.15335 | -131.93938 | 36224 ft | 485 kts | 284° |
| 2026-05-07 20:28 | 49.17637 | -132.03615 | 36224 ft | 485 kts | 284° |
| 2026-05-07 20:28 | 49.19918 | -132.13246 | 36228 ft | 485 kts | 284° |
| 2026-05-07 20:29 | 49.22209 | -132.22966 | 36227 ft | 487 kts | 283° |
| 2026-05-07 20:29 | 49.24498 | -132.32721 | 36229 ft | 488 kts | 283° |
| 2026-05-07 20:30 | 49.26790 | -132.42531 | 36226 ft | 490 kts | 283° |
| 2026-05-07 20:30 | 49.29066 | -132.52314 | 36227 ft | 491 kts | 283° |
| 2026-05-07 20:31 | 49.31351 | -132.62178 | 36238 ft | 492 kts | 283° |
| 2026-05-07 20:31 | 49.33632 | -132.72076 | 36231 ft | 493 kts | 283° |
| 2026-05-07 20:32 | 49.35911 | -132.82010 | 36227 ft | 493 kts | 283° |
| 2026-05-07 20:32 | 49.38178 | -132.91936 | 36219 ft | 493 kts | 283° |
| 2026-05-07 20:33 | 49.40423 | -133.01816 | 36249 ft | 493 kts | 282° |
| 2026-05-07 20:33 | 49.42673 | -133.11764 | 36224 ft | 494 kts | 282° |
| 2026-05-07 20:34 | 49.44922 | -133.21755 | 36226 ft | 494 kts | 282° |
| 2026-05-07 20:34 | 49.47158 | -133.31736 | 36225 ft | 494 kts | 282° |
| 2026-05-07 20:35 | 49.49374 | -133.41673 | 36220 ft | 495 kts | 282° |
| 2026-05-07 20:35 | 49.51604 | -133.51721 | 36219 ft | 496 kts | 282° |
| 2026-05-07 20:36 | 49.53826 | -133.61784 | 36219 ft | 497 kts | 282° |
| 2026-05-07 20:36 | 49.56041 | -133.71860 | 36219 ft | 497 kts | 282° |
| 2026-05-07 20:37 | 49.58248 | -133.81946 | 36216 ft | 497 kts | 282° |
| 2026-05-07 20:37 | 49.60432 | -133.91979 | 36228 ft | 497 kts | 281° |
| 2026-05-07 20:38 | 49.62622 | -134.02096 | 36211 ft | 498 kts | 281° |
| 2026-05-07 20:38 | 49.64810 | -134.12246 | 36211 ft | 498 kts | 281° |
| 2026-05-07 20:39 | 49.66973 | -134.22334 | 36211 ft | 498 kts | 281° |
| 2026-05-07 20:39 | 49.69142 | -134.32493 | 36211 ft | 498 kts | 281° |
| 2026-05-07 20:40 | 49.71301 | -134.42664 | 36208 ft | 498 kts | 281° |
| 2026-05-07 20:40 | 49.73452 | -134.52845 | 36206 ft | 498 kts | 281° |
| 2026-05-07 20:41 | 49.75593 | -134.63029 | 36205 ft | 498 kts | 281° |
| 2026-05-07 20:41 | 49.77710 | -134.73154 | 36205 ft | 498 kts | 281° |
| 2026-05-07 20:42 | 49.79834 | -134.83364 | 36204 ft | 499 kts | 281° |
| 2026-05-07 20:42 | 49.81952 | -134.93595 | 36203 ft | 500 kts | 281° |
| 2026-05-07 20:43 | 49.83710 | -135.02124 | 36203 ft | 500 kts | 281° |
| 2026-05-07 20:43 | 49.86156 | -135.14052 | 36203 ft | 500 kts | 280° |
| 2026-05-07 20:44 | 49.88249 | -135.24322 | 36225 ft | 500 kts | 280° |
| 2026-05-07 20:44 | 49.90337 | -135.34621 | 36195 ft | 501 kts | 280° |
| 2026-05-07 20:45 | 49.92069 | -135.43202 | 36198 ft | 501 kts | 280° |
| 2026-05-07 20:45 | 49.94142 | -135.53525 | 36187 ft | 502 kts | 280° |
| 2026-05-07 20:46 | 49.96549 | -135.65578 | 36190 ft | 503 kts | 280° |
| 2026-05-07 20:46 | 49.98278 | -135.74284 | 36193 ft | 505 kts | 280° |
| 2026-05-07 20:47 | 50.00328 | -135.84655 | 36186 ft | 506 kts | 280° |
| 2026-05-07 20:47 | 50.02383 | -135.95108 | 36186 ft | 506 kts | 280° |
| 2026-05-07 20:48 | 50.04432 | -136.05582 | 36183 ft | 506 kts | 279° |
| 2026-05-07 20:48 | 50.06470 | -136.16062 | 36205 ft | 506 kts | 280° |
| 2026-05-07 20:49 | 50.08488 | -136.26504 | 36177 ft | 508 kts | 279° |
| 2026-05-07 20:49 | 50.10516 | -136.37046 | 36178 ft | 508 kts | 279° |
| 2026-05-07 20:50 | 50.12533 | -136.47589 | 36172 ft | 508 kts | 279° |
| 2026-05-07 20:50 | 50.14542 | -136.58149 | 36170 ft | 508 kts | 279° |
| 2026-05-07 20:51 | 50.16530 | -136.68669 | 36163 ft | 510 kts | 279° |
| 2026-05-07 20:51 | 50.18530 | -136.79303 | 36180 ft | 511 kts | 279° |
| 2026-05-07 20:52 | 50.20525 | -136.89965 | 36157 ft | 512 kts | 279° |
| 2026-05-07 20:52 | 50.22510 | -137.00637 | 36158 ft | 512 kts | 279° |
| 2026-05-07 20:53 | 50.24474 | -137.11261 | 36163 ft | 513 kts | 279° |
| 2026-05-07 20:53 | 50.26444 | -137.21987 | 36151 ft | 514 kts | 279° |
| 2026-05-07 20:54 | 50.28405 | -137.32715 | 36144 ft | 514 kts | 279° |
| 2026-05-07 20:54 | 50.30359 | -137.43469 | 36144 ft | 514 kts | 279° |
| 2026-05-07 20:55 | 50.32289 | -137.54157 | 36158 ft | 514 kts | 279° |
| 2026-05-07 20:55 | 50.34223 | -137.64936 | 36136 ft | 515 kts | 279° |
| 2026-05-07 20:56 | 50.36149 | -137.75729 | 36138 ft | 515 kts | 279° |
| 2026-05-07 20:56 | 50.38068 | -137.86551 | 36130 ft | 517 kts | 279° |
| 2026-05-07 20:57 | 50.39971 | -137.97343 | 36124 ft | 517 kts | 279° |
| 2026-05-07 20:57 | 50.41874 | -138.08205 | 36124 ft | 518 kts | 279° |
| 2026-05-07 20:58 | 50.43775 | -138.19120 | 36119 ft | 519 kts | 279° |
| 2026-05-07 20:58 | 50.45667 | -138.30046 | 36106 ft | 519 kts | 279° |
| 2026-05-07 20:59 | 50.47548 | -138.40982 | 36106 ft | 519 kts | 278° |
| 2026-05-07 20:59 | 50.49407 | -138.51858 | 36109 ft | 520 kts | 279° |
| 2026-05-07 21:00 | 50.51269 | -138.62824 | 36102 ft | 520 kts | 279° |
| 2026-05-07 21:00 | 50.53124 | -138.73813 | 36096 ft | 520 kts | 278° |
| 2026-05-07 21:01 | 50.54968 | -138.84808 | 36097 ft | 520 kts | 278° |
| 2026-05-07 21:01 | 50.56789 | -138.95733 | 36103 ft | 521 kts | 278° |
| 2026-05-07 21:02 | 50.58617 | -139.06777 | 36081 ft | 522 kts | 278° |
| 2026-05-07 21:02 | 50.60435 | -139.17830 | 36092 ft | 522 kts | 278° |
| 2026-05-07 21:03 | 50.62245 | -139.28899 | 36070 ft | 522 kts | 278° |
| 2026-05-07 21:03 | 50.64030 | -139.39896 | 36070 ft | 522 kts | 278° |
| 2026-05-07 21:04 | 50.65819 | -139.50990 | 36073 ft | 522 kts | 278° |
| 2026-05-07 21:04 | 50.67597 | -139.62090 | 36061 ft | 523 kts | 278° |
| 2026-05-07 21:05 | 50.69366 | -139.73203 | 36060 ft | 523 kts | 278° |
| 2026-05-07 21:05 | 50.71113 | -139.84259 | 36059 ft | 523 kts | 278° |
| 2026-05-07 21:06 | 50.72859 | -139.95380 | 36063 ft | 523 kts | 278° |
| 2026-05-07 21:06 | 50.74596 | -140.06522 | 36053 ft | 522 kts | 278° |
| 2026-05-07 21:07 | 50.76324 | -140.17684 | 36042 ft | 524 kts | 278° |
| 2026-05-07 21:07 | 50.78034 | -140.28802 | 36037 ft | 524 kts | 278° |
| 2026-05-07 21:08 | 50.79742 | -140.39979 | 36052 ft | 525 kts | 278° |
| 2026-05-07 21:08 | 50.81444 | -140.51201 | 36035 ft | 525 kts | 278° |
| 2026-05-07 21:09 | 50.83136 | -140.62432 | 36024 ft | 525 kts | 278° |
| 2026-05-07 21:09 | 50.84814 | -140.73660 | 36023 ft | 525 kts | 278° |
| 2026-05-07 21:10 | 50.86471 | -140.84821 | 36018 ft | 524 kts | 278° |
| 2026-05-07 21:10 | 50.88127 | -140.96061 | 36018 ft | 524 kts | 278° |
| 2026-05-07 21:11 | 50.89772 | -141.07299 | 36011 ft | 524 kts | 278° |
| 2026-05-07 21:11 | 50.92220 | -141.24186 | 36005 ft | 524 kts | 278° |
| 2026-05-07 21:12 | 50.93839 | -141.35456 | 36002 ft | 525 kts | 278° |
| 2026-05-07 21:12 | 50.95440 | -141.46688 | 35999 ft | 526 kts | 278° |
| 2026-05-07 21:13 | 50.97043 | -141.58007 | 35991 ft | 526 kts | 278° |
| 2026-05-07 21:13 | 50.98635 | -141.69332 | 35990 ft | 526 kts | 278° |
| 2026-05-07 21:14 | 51.00214 | -141.80663 | 35988 ft | 526 kts | 278° |
| 2026-05-07 21:14 | 51.01773 | -141.91933 | 35987 ft | 526 kts | 278° |
| 2026-05-07 21:15 | 51.03330 | -142.03275 | 35975 ft | 526 kts | 278° |
| 2026-05-07 21:15 | 51.04876 | -142.14619 | 35975 ft | 525 kts | 278° |
| 2026-05-07 21:16 | 51.06411 | -142.25975 | 35972 ft | 525 kts | 278° |
| 2026-05-07 21:16 | 51.07933 | -142.37328 | 35978 ft | 525 kts | 278° |
| 2026-05-07 21:17 | 51.09436 | -142.48620 | 35969 ft | 525 kts | 278° |
| 2026-05-07 21:17 | 51.10938 | -142.60004 | 35960 ft | 526 kts | 278° |
| 2026-05-07 21:18 | 51.12429 | -142.71385 | 35958 ft | 526 kts | 278° |
| 2026-05-07 21:18 | 51.13909 | -142.82782 | 35957 ft | 526 kts | 277° |
| 2026-05-07 21:19 | 51.15368 | -142.94100 | 35944 ft | 525 kts | 278° |
| 2026-05-07 21:19 | 51.16824 | -143.05494 | 35941 ft | 524 kts | 278° |
| 2026-05-07 21:20 | 51.18267 | -143.16882 | 35938 ft | 524 kts | 278° |
| 2026-05-07 21:20 | 51.19697 | -143.28265 | 35938 ft | 524 kts | 277° |
| 2026-05-07 21:21 | 51.21107 | -143.39582 | 35933 ft | 524 kts | 277° |
| 2026-05-07 21:21 | 51.22516 | -143.50977 | 35925 ft | 523 kts | 277° |
| 2026-05-07 21:22 | 51.23910 | -143.62357 | 35926 ft | 523 kts | 277° |
| 2026-05-07 21:22 | 51.25294 | -143.73748 | 35927 ft | 524 kts | 277° |
| 2026-05-07 21:23 | 51.26671 | -143.85185 | 35919 ft | 524 kts | 277° |
| 2026-05-07 21:23 | 51.28028 | -143.96539 | 35908 ft | 524 kts | 277° |
| 2026-05-07 21:24 | 51.29382 | -144.07979 | 35909 ft | 525 kts | 277° |
| 2026-05-07 21:24 | 51.30728 | -144.19446 | 35909 ft | 525 kts | 277° |
| 2026-05-07 21:25 | 51.32052 | -144.30834 | 35909 ft | 525 kts | 277° |
| 2026-05-07 21:25 | 51.33372 | -144.42288 | 35896 ft | 524 kts | 277° |
| 2026-05-07 21:26 | 51.34680 | -144.53740 | 35896 ft | 523 kts | 277° |
| 2026-05-07 21:26 | 51.35975 | -144.65184 | 35898 ft | 523 kts | 277° |
| 2026-05-07 21:27 | 51.37258 | -144.76628 | 35891 ft | 522 kts | 277° |
| 2026-05-07 21:27 | 51.38529 | -144.88073 | 35895 ft | 522 kts | 277° |
| 2026-05-07 21:28 | 51.39781 | -144.99460 | 35874 ft | 523 kts | 277° |
| 2026-05-07 21:28 | 51.41032 | -145.10929 | 35874 ft | 523 kts | 277° |
| 2026-05-07 21:29 | 51.42272 | -145.22410 | 35878 ft | 523 kts | 277° |
| 2026-05-07 21:29 | 51.43493 | -145.33821 | 35877 ft | 523 kts | 277° |
| 2026-05-07 21:30 | 51.44710 | -145.45312 | 35867 ft | 523 kts | 277° |
| 2026-05-07 21:30 | 51.45915 | -145.56805 | 35860 ft | 523 kts | 276° |
| 2026-05-07 21:31 | 51.47109 | -145.68304 | 35861 ft | 523 kts | 276° |
| 2026-05-07 21:31 | 51.48284 | -145.79729 | 35860 ft | 522 kts | 276° |
| 2026-05-07 21:32 | 51.49454 | -145.91226 | 35853 ft | 523 kts | 276° |
| 2026-05-07 21:32 | 51.50616 | -146.02753 | 35848 ft | 523 kts | 276° |
| 2026-05-07 21:33 | 51.51766 | -146.14286 | 35848 ft | 523 kts | 276° |
| 2026-05-07 21:33 | 51.52896 | -146.25731 | 35844 ft | 523 kts | 276° |
| 2026-05-07 21:34 | 51.54024 | -146.37276 | 35848 ft | 523 kts | 276° |
| 2026-05-07 21:34 | 51.55139 | -146.48818 | 35838 ft | 523 kts | 276° |
| 2026-05-07 21:35 | 51.56243 | -146.60364 | 35831 ft | 523 kts | 276° |
| 2026-05-07 21:35 | 51.57335 | -146.71911 | 35831 ft | 522 kts | 275° |
| 2026-05-07 21:36 | 51.58408 | -146.83377 | 35833 ft | 522 kts | 275° |
| 2026-05-07 21:36 | 51.59479 | -146.94937 | 35833 ft | 522 kts | 275° |
| 2026-05-07 21:37 | 51.60536 | -147.06480 | 35828 ft | 522 kts | 275° |
| 2026-05-07 21:37 | 51.61580 | -147.18027 | 35834 ft | 521 kts | 275° |
| 2026-05-07 21:38 | 51.62607 | -147.29503 | 35834 ft | 521 kts | 275° |
| 2026-05-07 21:38 | 51.63628 | -147.41053 | 35829 ft | 522 kts | 275° |
| 2026-05-07 21:39 | 51.64638 | -147.52592 | 35820 ft | 519 kts | 275° |
| 2026-05-07 21:39 | 51.65633 | -147.64101 | 35818 ft | 519 kts | 274° |
| 2026-05-07 21:40 | 51.66608 | -147.75534 | 35816 ft | 519 kts | 274° |
| 2026-05-07 21:40 | 51.67579 | -147.87038 | 35808 ft | 518 kts | 274° |
| 2026-05-07 21:41 | 51.68538 | -147.98541 | 35808 ft | 518 kts | 274° |
| 2026-05-07 21:41 | 51.69486 | -148.10047 | 35801 ft | 517 kts | 274° |
| 2026-05-07 21:42 | 51.70415 | -148.21468 | 35813 ft | 517 kts | 274° |
| 2026-05-07 21:42 | 51.71339 | -148.32965 | 35806 ft | 517 kts | 274° |
| 2026-05-07 21:43 | 51.72252 | -148.44473 | 35798 ft | 517 kts | 274° |
| 2026-05-07 21:43 | 51.73153 | -148.55956 | 35797 ft | 516 kts | 274° |
| 2026-05-07 21:44 | 51.74034 | -148.67365 | 35797 ft | 516 kts | 273° |
| 2026-05-07 21:44 | 51.74912 | -148.78876 | 35796 ft | 517 kts | 273° |
| 2026-05-07 21:45 | 51.75781 | -148.90409 | 35785 ft | 518 kts | 273° |
| 2026-05-07 21:45 | 51.76639 | -149.01953 | 35785 ft | 518 kts | 273° |
| 2026-05-07 21:46 | 51.77487 | -149.13512 | 35787 ft | 518 kts | 273° |
| 2026-05-07 21:46 | 51.78316 | -149.24980 | 35787 ft | 518 kts | 273° |
| 2026-05-07 21:47 | 51.79141 | -149.36553 | 35785 ft | 518 kts | 273° |
| 2026-05-07 21:47 | 51.79953 | -149.48107 | 35780 ft | 518 kts | 272° |
| 2026-05-07 21:48 | 51.80754 | -149.59665 | 35777 ft | 517 kts | 272° |
| 2026-05-07 21:48 | 51.81538 | -149.71143 | 35777 ft | 517 kts | 272° |
| 2026-05-07 21:49 | 51.82314 | -149.82685 | 35779 ft | 517 kts | 272° |
| 2026-05-07 21:49 | 51.83080 | -149.94266 | 35770 ft | 518 kts | 272° |
| 2026-05-07 21:50 | 51.83838 | -150.05866 | 35764 ft | 519 kts | 272° |
| 2026-05-07 21:50 | 51.84580 | -150.17385 | 35762 ft | 518 kts | 272° |
| 2026-05-07 21:51 | 51.85314 | -150.28967 | 35763 ft | 518 kts | 272° |
| 2026-05-07 21:51 | 51.86035 | -150.40546 | 35755 ft | 517 kts | 272° |
| 2026-05-07 21:52 | 51.86744 | -150.52136 | 35761 ft | 518 kts | 271° |
| 2026-05-07 21:52 | 51.87438 | -150.63638 | 35751 ft | 517 kts | 271° |
| 2026-05-07 21:53 | 51.88125 | -150.75236 | 35755 ft | 517 kts | 271° |
| 2026-05-07 21:53 | 51.88800 | -150.86821 | 35754 ft | 517 kts | 271° |
| 2026-05-07 21:54 | 51.89464 | -150.98405 | 35747 ft | 517 kts | 271° |
| 2026-05-07 21:54 | 51.90112 | -151.09926 | 35751 ft | 517 kts | 271° |
| 2026-05-07 21:55 | 51.90753 | -151.21524 | 35748 ft | 517 kts | 271° |
| 2026-05-07 21:55 | 51.91383 | -151.33132 | 35743 ft | 518 kts | 271° |
| 2026-05-07 21:56 | 51.92002 | -151.44748 | 35738 ft | 518 kts | 271° |
| 2026-05-07 21:56 | 51.92610 | -151.56366 | 35745 ft | 517 kts | 270° |
| 2026-05-07 21:57 | 51.93201 | -151.67888 | 35743 ft | 516 kts | 270° |
| 2026-05-07 21:57 | 51.93784 | -151.79474 | 35743 ft | 516 kts | 270° |
| 2026-05-07 21:58 | 51.94354 | -151.91059 | 35744 ft | 516 kts | 270° |
| 2026-05-07 21:58 | 51.94914 | -152.02662 | 35739 ft | 516 kts | 270° |
| 2026-05-07 21:59 | 51.95459 | -152.14158 | 35737 ft | 514 kts | 269° |
| 2026-05-07 21:59 | 51.95994 | -152.25704 | 35744 ft | 513 kts | 269° |
| 2026-05-07 22:00 | 51.96517 | -152.37254 | 35749 ft | 514 kts | 269° |
| 2026-05-07 22:00 | 51.97029 | -152.48802 | 35747 ft | 514 kts | 269° |
| 2026-05-07 22:01 | 51.97527 | -152.60307 | 35766 ft | 515 kts | 269° |
| 2026-05-07 22:01 | 51.98018 | -152.71887 | 35744 ft | 514 kts | 269° |
| 2026-05-07 22:02 | 51.98496 | -152.83437 | 35762 ft | 513 kts | 269° |
| 2026-05-07 22:02 | 51.98962 | -152.94958 | 35757 ft | 512 kts | 269° |
| 2026-05-07 22:03 | 51.99413 | -153.06415 | 35751 ft | 512 kts | 269° |
| 2026-05-07 22:03 | 51.99855 | -153.17944 | 35755 ft | 511 kts | 269° |
| 2026-05-07 22:04 | 52.00286 | -153.29422 | 35770 ft | 509 kts | 269° |
| 2026-05-07 22:04 | 52.00704 | -153.40891 | 35775 ft | 509 kts | 269° |
| 2026-05-07 22:05 | 52.01109 | -153.52346 | 35773 ft | 509 kts | 269° |
| 2026-05-07 22:05 | 52.01502 | -153.63720 | 35766 ft | 508 kts | 269° |
| 2026-05-07 22:06 | 52.01885 | -153.75188 | 35785 ft | 509 kts | 270° |
| 2026-05-07 22:06 | 52.02259 | -153.86664 | 35786 ft | 509 kts | 270° |
| 2026-05-07 22:07 | 52.02619 | -153.98071 | 35779 ft | 509 kts | 269° |
| 2026-05-07 22:07 | 52.02971 | -154.09562 | 35790 ft | 509 kts | 269° |
| 2026-05-07 22:08 | 52.03312 | -154.21036 | 35788 ft | 509 kts | 269° |
| 2026-05-07 22:08 | 52.03641 | -154.32532 | 35799 ft | 509 kts | 269° |
| 2026-05-07 22:09 | 52.03959 | -154.44022 | 35799 ft | 509 kts | 269° |
| 2026-05-07 22:09 | 52.04264 | -154.55434 | 35795 ft | 509 kts | 269° |
| 2026-05-07 22:10 | 52.04560 | -154.66917 | 35793 ft | 509 kts | 269° |
| 2026-05-07 22:10 | 52.04844 | -154.78415 | 35800 ft | 508 kts | 269° |
| 2026-05-07 22:11 | 52.05116 | -154.89861 | 35800 ft | 507 kts | 269° |
| 2026-05-07 22:11 | 52.05375 | -155.01230 | 35811 ft | 507 kts | 268° |
| 2026-05-07 22:12 | 52.05625 | -155.12698 | 35814 ft | 508 kts | 269° |
| 2026-05-07 22:12 | 52.05865 | -155.24177 | 35826 ft | 509 kts | 270° |
| 2026-05-07 22:13 | 52.06092 | -155.35605 | 35821 ft | 509 kts | 269° |
| 2026-05-07 22:13 | 52.06310 | -155.47107 | 35824 ft | 509 kts | 270° |
| 2026-05-07 22:14 | 52.06517 | -155.58598 | 35829 ft | 509 kts | 268° |
| 2026-05-07 22:14 | 52.06713 | -155.70108 | 35829 ft | 509 kts | 269° |
| 2026-05-07 22:15 | 52.06896 | -155.81609 | 35839 ft | 509 kts | 269° |
| 2026-05-07 22:15 | 52.07069 | -155.92999 | 35828 ft | 507 kts | 269° |
| 2026-05-07 22:16 | 52.07230 | -156.04466 | 35840 ft | 507 kts | 268° |
| 2026-05-07 22:16 | 52.07381 | -156.15928 | 35837 ft | 507 kts | 268° |
| 2026-05-07 22:17 | 52.07518 | -156.27382 | 35845 ft | 507 kts | 269° |
| 2026-05-07 22:17 | 52.07645 | -156.38777 | 35840 ft | 507 kts | 269° |
| 2026-05-07 22:18 | 52.07816 | -156.55969 | 35862 ft | 507 kts | 268° |
| 2026-05-07 22:19 | 52.07917 | -156.67425 | 35851 ft | 507 kts | 269° |
| 2026-05-07 22:19 | 52.08006 | -156.78894 | 35860 ft | 507 kts | 268° |
| 2026-05-07 22:20 | 52.08082 | -156.90254 | 35858 ft | 505 kts | 268° |
| 2026-05-07 22:20 | 52.08149 | -157.01669 | 35860 ft | 504 kts | 268° |
| 2026-05-07 22:21 | 52.08204 | -157.13058 | 35860 ft | 504 kts | 269° |
| 2026-05-07 22:21 | 52.08248 | -157.24456 | 35868 ft | 504 kts | 269° |
| 2026-05-07 22:22 | 52.08281 | -157.35777 | 35878 ft | 504 kts | 268° |
| 2026-05-07 22:22 | 52.08304 | -157.47155 | 35872 ft | 502 kts | 268° |
| 2026-05-07 22:23 | 52.08315 | -157.58491 | 35869 ft | 502 kts | 268° |
| 2026-05-07 22:23 | 52.08316 | -157.69864 | 35872 ft | 503 kts | 268° |
| 2026-05-07 22:24 | 52.08305 | -157.81182 | 35873 ft | 504 kts | 268° |
| 2026-05-07 22:24 | 52.08285 | -157.92579 | 35882 ft | 504 kts | 268° |
| 2026-05-07 22:25 | 52.08253 | -158.03976 | 35880 ft | 504 kts | 268° |
| 2026-05-07 22:25 | 52.08209 | -158.15374 | 35879 ft | 504 kts | 268° |
| 2026-05-07 22:26 | 52.08155 | -158.26757 | 35879 ft | 504 kts | 267° |
| 2026-05-07 22:26 | 52.08090 | -158.38069 | 35885 ft | 504 kts | 268° |
| 2026-05-07 22:27 | 52.08015 | -158.49455 | 35876 ft | 503 kts | 267° |
| 2026-05-07 22:27 | 52.07928 | -158.60803 | 35876 ft | 502 kts | 267° |
| 2026-05-07 22:28 | 52.07830 | -158.72146 | 35880 ft | 502 kts | 267° |
| 2026-05-07 22:28 | 52.07722 | -158.83418 | 35885 ft | 502 kts | 267° |
| 2026-05-07 22:29 | 52.07603 | -158.94756 | 35903 ft | 502 kts | 267° |
| 2026-05-07 22:29 | 52.07473 | -159.06076 | 35898 ft | 500 kts | 267° |
| 2026-05-07 22:30 | 52.07332 | -159.17371 | 35893 ft | 500 kts | 267° |
| 2026-05-07 22:30 | 52.07182 | -159.28583 | 35891 ft | 500 kts | 266° |
| 2026-05-07 22:31 | 52.07020 | -159.39872 | 35888 ft | 500 kts | 266° |
| 2026-05-07 22:31 | 52.06847 | -159.51159 | 35888 ft | 500 kts | 266° |
| 2026-05-07 22:32 | 52.06663 | -159.62454 | 35891 ft | 500 kts | 266° |
| 2026-05-07 22:32 | 52.06471 | -159.73661 | 35890 ft | 500 kts | 266° |
| 2026-05-07 22:33 | 52.06266 | -159.84936 | 35891 ft | 499 kts | 266° |
| 2026-05-07 22:33 | 52.06050 | -159.96222 | 35891 ft | 499 kts | 266° |
| 2026-05-07 22:34 | 52.05824 | -160.07492 | 35895 ft | 499 kts | 266° |
| 2026-05-07 22:34 | 52.05587 | -160.18767 | 35895 ft | 500 kts | 266° |
| 2026-05-07 22:35 | 52.05339 | -160.30012 | 35898 ft | 502 kts | 266° |
| 2026-05-07 22:35 | 52.05079 | -160.41345 | 35898 ft | 503 kts | 266° |
| 2026-05-07 22:36 | 52.04809 | -160.52694 | 35901 ft | 503 kts | 266° |
| 2026-05-07 22:36 | 52.04527 | -160.64025 | 35899 ft | 501 kts | 266° |
| 2026-05-07 22:37 | 52.04237 | -160.75252 | 35897 ft | 501 kts | 266° |
| 2026-05-07 22:37 | 52.03934 | -160.86550 | 35900 ft | 501 kts | 265° |
| 2026-05-07 22:38 | 52.03621 | -160.97846 | 35901 ft | 501 kts | 265° |
| 2026-05-07 22:38 | 52.03297 | -161.09138 | 35905 ft | 500 kts | 265° |
| 2026-05-07 22:39 | 52.02965 | -161.20338 | 35900 ft | 499 kts | 265° |
| 2026-05-07 22:39 | 52.02620 | -161.31600 | 35900 ft | 499 kts | 265° |
| 2026-05-07 22:40 | 52.02264 | -161.42855 | 35897 ft | 499 kts | 265° |
| 2026-05-07 22:40 | 52.01897 | -161.54134 | 35903 ft | 501 kts | 265° |
| 2026-05-07 22:41 | 52.01520 | -161.65372 | 35901 ft | 502 kts | 265° |
| 2026-05-07 22:41 | 52.01132 | -161.76674 | 35900 ft | 501 kts | 265° |
| 2026-05-07 22:42 | 52.00732 | -161.87972 | 35899 ft | 501 kts | 265° |
| 2026-05-07 22:42 | 52.00321 | -161.99263 | 35901 ft | 501 kts | 265° |
| 2026-05-07 22:43 | 51.99902 | -162.10471 | 35901 ft | 501 kts | 265° |
| 2026-05-07 22:43 | 51.99469 | -162.21765 | 35894 ft | 501 kts | 265° |
| 2026-05-07 22:44 | 51.99026 | -162.33051 | 35902 ft | 501 kts | 265° |
| 2026-05-07 22:44 | 51.98573 | -162.44336 | 35897 ft | 501 kts | 265° |
| 2026-05-07 22:45 | 51.98111 | -162.55545 | 35900 ft | 501 kts | 264° |
| 2026-05-07 22:45 | 51.97635 | -162.66827 | 35903 ft | 502 kts | 265° |
| 2026-05-07 22:46 | 51.97147 | -162.78143 | 35896 ft | 504 kts | 264° |
| 2026-05-07 22:46 | 51.96647 | -162.89476 | 35897 ft | 504 kts | 264° |
| 2026-05-07 22:47 | 51.96140 | -163.00737 | 35899 ft | 504 kts | 264° |
| 2026-05-07 22:47 | 51.95618 | -163.12084 | 35899 ft | 504 kts | 264° |
| 2026-05-07 22:48 | 51.95085 | -163.23424 | 35902 ft | 506 kts | 264° |
| 2026-05-07 22:48 | 51.94539 | -163.34805 | 35900 ft | 507 kts | 264° |
| 2026-05-07 22:49 | 51.93981 | -163.46210 | 35899 ft | 507 kts | 264° |
| 2026-05-07 22:49 | 51.93416 | -163.57532 | 35900 ft | 508 kts | 264° |
| 2026-05-07 22:50 | 51.92836 | -163.68926 | 35902 ft | 508 kts | 264° |
| 2026-05-07 22:50 | 51.92243 | -163.80352 | 35902 ft | 510 kts | 264° |
| 2026-05-07 22:51 | 51.91637 | -163.91832 | 35900 ft | 512 kts | 264° |
| 2026-05-07 22:51 | 51.91022 | -164.03250 | 35900 ft | 512 kts | 264° |
| 2026-05-07 22:52 | 51.90393 | -164.14729 | 35897 ft | 512 kts | 264° |
| 2026-05-07 22:52 | 51.89751 | -164.26211 | 35899 ft | 513 kts | 264° |
| 2026-05-07 22:53 | 51.89097 | -164.37736 | 35897 ft | 515 kts | 264° |
| 2026-05-07 22:53 | 51.88434 | -164.49203 | 35901 ft | 516 kts | 264° |
| 2026-05-07 22:54 | 51.87755 | -164.60766 | 35900 ft | 516 kts | 264° |
| 2026-05-07 22:54 | 51.87064 | -164.72326 | 35900 ft | 516 kts | 264° |
| 2026-05-07 22:55 | 51.86362 | -164.83869 | 35896 ft | 516 kts | 264° |
| 2026-05-07 22:55 | 51.85653 | -164.95346 | 35895 ft | 516 kts | 264° |
| 2026-05-07 22:56 | 51.84928 | -165.06889 | 35898 ft | 516 kts | 263° |
| 2026-05-07 22:56 | 51.84192 | -165.18428 | 35898 ft | 516 kts | 263° |
| 2026-05-07 22:57 | 51.83444 | -165.29965 | 35893 ft | 516 kts | 263° |
| 2026-05-07 22:57 | 51.82684 | -165.41522 | 35892 ft | 518 kts | 263° |
| 2026-05-07 22:58 | 51.81916 | -165.53021 | 35892 ft | 518 kts | 263° |
| 2026-05-07 22:58 | 51.81132 | -165.64589 | 35892 ft | 518 kts | 263° |
| 2026-05-07 22:59 | 51.80337 | -165.76151 | 35892 ft | 518 kts | 263° |
| 2026-05-07 22:59 | 51.79529 | -165.87727 | 35892 ft | 519 kts | 263° |
| 2026-05-07 23:00 | 51.78709 | -165.99302 | 35890 ft | 519 kts | 263° |
| 2026-05-07 23:00 | 51.77884 | -166.10799 | 35892 ft | 519 kts | 263° |
| 2026-05-07 23:01 | 51.77040 | -166.22384 | 35891 ft | 519 kts | 263° |
| 2026-05-07 23:01 | 51.76186 | -166.33950 | 35887 ft | 519 kts | 263° |
| 2026-05-07 23:02 | 51.75320 | -166.45531 | 35886 ft | 520 kts | 263° |
| 2026-05-07 23:02 | 51.74440 | -166.57126 | 35890 ft | 521 kts | 263° |
| 2026-05-07 23:03 | 51.73555 | -166.68653 | 35889 ft | 522 kts | 262° |
| 2026-05-07 23:03 | 51.72651 | -166.80257 | 35881 ft | 522 kts | 262° |
| 2026-05-07 23:04 | 51.71735 | -166.91870 | 35881 ft | 522 kts | 262° |
| 2026-05-07 23:04 | 51.70806 | -167.03498 | 35881 ft | 523 kts | 262° |
| 2026-05-07 23:05 | 51.69871 | -167.15043 | 35880 ft | 523 kts | 262° |
| 2026-05-07 23:05 | 51.68920 | -167.26658 | 35881 ft | 523 kts | 262° |
| 2026-05-07 23:06 | 51.67956 | -167.38276 | 35879 ft | 523 kts | 262° |
| 2026-05-07 23:06 | 51.66980 | -167.49900 | 35878 ft | 524 kts | 262° |
| 2026-05-07 23:07 | 51.65998 | -167.61453 | 35875 ft | 524 kts | 262° |
| 2026-05-07 23:07 | 51.64998 | -167.73067 | 35876 ft | 524 kts | 262° |
| 2026-05-07 23:08 | 51.63986 | -167.84695 | 35869 ft | 525 kts | 262° |
| 2026-05-07 23:08 | 51.62961 | -167.96340 | 35870 ft | 526 kts | 261° |
| 2026-05-07 23:09 | 51.61923 | -168.07987 | 35870 ft | 526 kts | 261° |
| 2026-05-07 23:09 | 51.60880 | -168.19560 | 35870 ft | 526 kts | 261° |
| 2026-05-07 23:10 | 51.59819 | -168.31189 | 35867 ft | 526 kts | 261° |
| 2026-05-07 23:10 | 51.58746 | -168.42835 | 35865 ft | 526 kts | 261° |
| 2026-05-07 23:11 | 51.57661 | -168.54471 | 35865 ft | 527 kts | 261° |
| 2026-05-07 23:11 | 51.56571 | -168.66032 | 35864 ft | 527 kts | 261° |
| 2026-05-07 23:12 | 51.55463 | -168.77662 | 35856 ft | 527 kts | 261° |
| 2026-05-07 23:12 | 51.54343 | -168.89287 | 35856 ft | 527 kts | 261° |
| 2026-05-07 23:13 | 51.53211 | -169.00918 | 35856 ft | 527 kts | 261° |
| 2026-05-07 23:13 | 51.52074 | -169.12468 | 35859 ft | 528 kts | 260° |
| 2026-05-07 23:14 | 51.50917 | -169.24110 | 35866 ft | 528 kts | 260° |
| 2026-05-07 23:14 | 51.49747 | -169.35754 | 35860 ft | 529 kts | 260° |
| 2026-05-07 23:15 | 51.48563 | -169.47416 | 35857 ft | 529 kts | 260° |
| 2026-05-07 23:15 | 51.47370 | -169.59053 | 35851 ft | 529 kts | 260° |
| 2026-05-07 23:16 | 51.46171 | -169.70620 | 35853 ft | 529 kts | 260° |
| 2026-05-07 23:16 | 51.44953 | -169.82265 | 35847 ft | 529 kts | 260° |
| 2026-05-07 23:17 | 51.43724 | -169.93891 | 35846 ft | 529 kts | 260° |
| 2026-05-07 23:17 | 51.42483 | -170.05515 | 35843 ft | 529 kts | 259° |
| 2026-05-07 23:18 | 51.41239 | -170.17061 | 35841 ft | 529 kts | 259° |
| 2026-05-07 23:18 | 51.39975 | -170.28671 | 35847 ft | 529 kts | 259° |
| 2026-05-07 23:19 | 51.38700 | -170.40278 | 35847 ft | 529 kts | 259° |
| 2026-05-07 23:19 | 51.37632 | -170.49920 | 35847 ft | 530 kts | 259° |
| 2026-05-07 23:20 | 51.36123 | -170.63407 | 35846 ft | 530 kts | 259° |
| 2026-05-07 23:20 | 51.34812 | -170.75006 | 35844 ft | 530 kts | 259° |
| 2026-05-07 23:21 | 51.33713 | -170.84643 | 35840 ft | 530 kts | 259° |
| 2026-05-07 23:21 | 51.32382 | -170.96225 | 35833 ft | 530 kts | 259° |
| 2026-05-07 23:22 | 51.30819 | -171.09694 | 35834 ft | 530 kts | 259° |
| 2026-05-07 23:22 | 51.29683 | -171.19388 | 35835 ft | 530 kts | 259° |
| 2026-05-07 23:23 | 51.28325 | -171.30886 | 35831 ft | 530 kts | 258° |
| 2026-05-07 23:23 | 51.26948 | -171.42448 | 35830 ft | 530 kts | 258° |
| 2026-05-07 23:24 | 51.25558 | -171.54008 | 35826 ft | 530 kts | 258° |
| 2026-05-07 23:24 | 51.24156 | -171.65569 | 35824 ft | 530 kts | 258° |
| 2026-05-07 23:25 | 51.22752 | -171.77043 | 35816 ft | 530 kts | 258° |
| 2026-05-07 23:25 | 51.21329 | -171.88575 | 35818 ft | 530 kts | 258° |
| 2026-05-07 23:26 | 51.19894 | -172.00114 | 35816 ft | 530 kts | 258° |
| 2026-05-07 23:26 | 51.18447 | -172.11638 | 35815 ft | 530 kts | 258° |
| 2026-05-07 23:27 | 51.16266 | -172.28835 | 35815 ft | 531 kts | 258° |
| 2026-05-07 23:27 | 51.14790 | -172.40350 | 35816 ft | 530 kts | 257° |
| 2026-05-07 23:28 | 51.13304 | -172.51855 | 35822 ft | 531 kts | 257° |
| 2026-05-07 23:28 | 51.11806 | -172.63356 | 35862 ft | 531 kts | 257° |
| 2026-05-07 23:29 | 51.10295 | -172.74858 | 35871 ft | 530 kts | 257° |
| 2026-05-07 23:29 | 51.08786 | -172.86258 | 35871 ft | 530 kts | 257° |
| 2026-05-07 23:30 | 51.07255 | -172.97729 | 35870 ft | 531 kts | 257° |
| 2026-05-07 23:30 | 51.05712 | -173.09202 | 35872 ft | 530 kts | 257° |
| 2026-05-07 23:31 | 51.04158 | -173.20662 | 35869 ft | 530 kts | 257° |
| 2026-05-07 23:31 | 51.02604 | -173.32031 | 35868 ft | 530 kts | 257° |
| 2026-05-07 23:32 | 51.01028 | -173.43472 | 35870 ft | 530 kts | 256° |
| 2026-05-07 23:32 | 50.99442 | -173.54899 | 35870 ft | 530 kts | 256° |
| 2026-05-07 23:33 | 50.97847 | -173.66303 | 35877 ft | 530 kts | 256° |
| 2026-05-07 23:33 | 50.96249 | -173.77640 | 35873 ft | 530 kts | 256° |
| 2026-05-07 23:34 | 50.94631 | -173.89038 | 35885 ft | 530 kts | 256° |
| 2026-05-07 23:34 | 50.93004 | -174.00413 | 35891 ft | 529 kts | 256° |
| 2026-05-07 23:35 | 50.91364 | -174.11785 | 35887 ft | 529 kts | 256° |
| 2026-05-07 23:35 | 50.89714 | -174.23149 | 35885 ft | 529 kts | 255° |
| 2026-05-07 23:36 | 50.88065 | -174.34419 | 35893 ft | 529 kts | 255° |
| 2026-05-07 23:36 | 50.86393 | -174.45761 | 35924 ft | 529 kts | 255° |
| 2026-05-07 23:37 | 50.84713 | -174.57082 | 35923 ft | 528 kts | 255° |
| 2026-05-07 23:37 | 50.83023 | -174.68388 | 35923 ft | 528 kts | 255° |
| 2026-05-07 23:38 | 50.81332 | -174.79616 | 35926 ft | 528 kts | 255° |
| 2026-05-07 23:38 | 50.79620 | -174.90901 | 35926 ft | 528 kts | 255° |
| 2026-05-07 23:39 | 50.77897 | -175.02184 | 35931 ft | 528 kts | 255° |
| 2026-05-07 23:39 | 50.76166 | -175.13440 | 35985 ft | 526 kts | 255° |
| 2026-05-07 23:40 | 50.74426 | -175.24675 | 35990 ft | 526 kts | 254° |
| 2026-05-07 23:40 | 50.72690 | -175.35804 | 36033 ft | 525 kts | 254° |
| 2026-05-07 23:41 | 50.70934 | -175.46989 | 36047 ft | 525 kts | 254° |
| 2026-05-07 23:41 | 50.69169 | -175.58156 | 36061 ft | 525 kts | 254° |
| 2026-05-07 23:42 | 50.67393 | -175.69308 | 36055 ft | 524 kts | 254° |
| 2026-05-07 23:42 | 50.65620 | -175.80376 | 36059 ft | 524 kts | 254° |
| 2026-05-07 23:43 | 50.63826 | -175.91494 | 36109 ft | 523 kts | 254° |
| 2026-05-07 23:43 | 50.62024 | -176.02586 | 36110 ft | 523 kts | 254° |
| 2026-05-07 23:44 | 50.60211 | -176.13680 | 36120 ft | 523 kts | 253° |
| 2026-05-07 23:44 | 50.58400 | -176.24681 | 36123 ft | 523 kts | 254° |
| 2026-05-07 23:45 | 50.56571 | -176.35721 | 36205 ft | 520 kts | 254° |
| 2026-05-07 23:45 | 50.54738 | -176.46712 | 36202 ft | 520 kts | 254° |
| 2026-05-07 23:46 | 50.52896 | -176.57704 | 36192 ft | 520 kts | 253° |
| 2026-05-07 23:46 | 50.51055 | -176.68614 | 36177 ft | 520 kts | 253° |
| 2026-05-07 23:47 | 50.49190 | -176.79594 | 36201 ft | 518 kts | 253° |
| 2026-05-07 23:47 | 50.48262 | -176.85032 | 36322 ft | 515 kts | 253° |
| 2026-05-07 23:47 | 50.47332 | -176.90468 | 36339 ft | 515 kts | 254° |
| 2026-05-07 23:48 | 50.45466 | -177.01314 | 36338 ft | 515 kts | 254° |
| 2026-05-07 23:48 | 50.43587 | -177.12168 | 36344 ft | 515 kts | 254° |
| 2026-05-07 23:49 | 50.41713 | -177.22934 | 36344 ft | 515 kts | 253° |
| 2026-05-07 23:49 | 50.39824 | -177.33709 | 36485 ft | 510 kts | 254° |
| 2026-05-07 23:50 | 50.37940 | -177.44396 | 36604 ft | 506 kts | 255° |
| 2026-05-07 23:50 | 50.36057 | -177.55017 | 36607 ft | 506 kts | 255° |
| 2026-05-07 23:51 | 50.34177 | -177.65559 | 36583 ft | 507 kts | 255° |
| 2026-05-07 23:51 | 50.32275 | -177.76156 | 36637 ft | 503 kts | 255° |
| 2026-05-07 23:52 | 50.30380 | -177.86653 | 36676 ft | 501 kts | 255° |
| 2026-05-07 23:52 | 50.28474 | -177.97160 | 36600 ft | 502 kts | 255° |
| 2026-05-07 23:53 | 50.26557 | -178.07662 | 36591 ft | 502 kts | 255° |
| 2026-05-07 23:53 | 50.24645 | -178.18077 | 36562 ft | 502 kts | 255° |
| 2026-05-07 23:54 | 50.22712 | -178.28541 | 36554 ft | 501 kts | 255° |
| 2026-05-07 23:54 | 50.20772 | -178.38990 | 36552 ft | 501 kts | 255° |
| 2026-05-07 23:55 | 50.18822 | -178.49429 | 36540 ft | 501 kts | 255° |
| 2026-05-07 23:55 | 50.16866 | -178.59843 | 36548 ft | 500 kts | 255° |
| 2026-05-07 23:56 | 50.14922 | -178.70134 | 36604 ft | 496 kts | 255° |
| 2026-05-07 23:56 | 50.12965 | -178.80442 | 36692 ft | 494 kts | 255° |
| 2026-05-07 23:57 | 50.11992 | -178.85546 | 36951 ft | 489 kts | 255° |
| 2026-05-07 23:57 | 50.11025 | -178.90607 | 37209 ft | 486 kts | 255° |
| 2026-05-07 23:57 | 50.10061 | -178.95635 | 37471 ft | 482 kts | 255° |
| 2026-05-07 23:57 | 50.09103 | -179.00625 | 37727 ft | 479 kts | 255° |
| 2026-05-07 23:58 | 50.08161 | -179.05516 | 37905 ft | 478 kts | 255° |
| 2026-05-07 23:58 | 50.07202 | -179.10484 | 37932 ft | 480 kts | 255° |
| 2026-05-07 23:58 | 50.05267 | -179.20469 | 37930 ft | 484 kts | 255° |
| 2026-05-07 23:59 | 50.03307 | -179.30523 | 37934 ft | 487 kts | 254° |
| 2026-05-07 23:59 | 50.01329 | -179.40614 | 37932 ft | 489 kts | 254° |
| 2026-05-08 00:00 | 49.99350 | -179.50655 | 37935 ft | 490 kts | 254° |
| 2026-05-08 00:00 | 49.97347 | -179.60767 | 37937 ft | 491 kts | 254° |
| 2026-05-08 00:01 | 49.95327 | -179.70909 | 37936 ft | 490 kts | 255° |
| 2026-05-08 00:01 | 49.93307 | -179.81004 | 37935 ft | 490 kts | 254° |
| 2026-05-08 00:02 | 49.91279 | -179.91089 | 37940 ft | 490 kts | 254° |
| 2026-05-08 00:02 | 49.89314 | 179.99192 | 37939 ft | 489 kts | 255° |
| 2026-05-08 00:03 | 49.87273 | 179.89141 | 37943 ft | 488 kts | 254° |
| 2026-05-08 00:03 | 49.85225 | 179.79117 | 37947 ft | 488 kts | 254° |
| 2026-05-08 00:04 | 49.83171 | 179.69108 | 37947 ft | 487 kts | 254° |
| 2026-05-08 00:04 | 49.81122 | 179.59179 | 37948 ft | 487 kts | 254° |
| 2026-05-08 00:05 | 49.79053 | 179.49200 | 37951 ft | 486 kts | 254° |
| 2026-05-08 00:05 | 49.76982 | 179.39258 | 37956 ft | 485 kts | 254° |
| 2026-05-08 00:06 | 49.74907 | 179.29346 | 37951 ft | 484 kts | 254° |
| 2026-05-08 00:06 | 49.72827 | 179.19459 | 37959 ft | 483 kts | 254° |
| 2026-05-08 00:07 | 49.70757 | 179.09672 | 37950 ft | 482 kts | 254° |
| 2026-05-08 00:07 | 49.68671 | 178.99854 | 37973 ft | 480 kts | 254° |
| 2026-05-08 00:08 | 49.66582 | 178.90063 | 37970 ft | 480 kts | 254° |
| 2026-05-08 00:08 | 49.64485 | 178.80287 | 37950 ft | 479 kts | 254° |
| 2026-05-08 00:09 | 49.62383 | 178.70534 | 37973 ft | 479 kts | 254° |
| 2026-05-08 00:09 | 49.60286 | 178.60855 | 37965 ft | 479 kts | 254° |
| 2026-05-08 00:10 | 49.58170 | 178.51127 | 37971 ft | 478 kts | 254° |
| 2026-05-08 00:10 | 49.56049 | 178.41424 | 37972 ft | 478 kts | 254° |
| 2026-05-08 00:11 | 49.53920 | 178.31732 | 37974 ft | 478 kts | 254° |
| 2026-05-08 00:11 | 49.51796 | 178.22104 | 37972 ft | 478 kts | 254° |
| 2026-05-08 00:12 | 49.49654 | 178.12448 | 37973 ft | 476 kts | 254° |
| 2026-05-08 00:12 | 49.47510 | 178.02822 | 37977 ft | 475 kts | 254° |
| 2026-05-08 00:13 | 49.45364 | 177.93227 | 37978 ft | 475 kts | 254° |
| 2026-05-08 00:13 | 49.43224 | 177.83701 | 37977 ft | 475 kts | 254° |
| 2026-05-08 00:14 | 49.41061 | 177.74121 | 37975 ft | 474 kts | 254° |
| 2026-05-08 00:14 | 49.38893 | 177.64564 | 37982 ft | 474 kts | 254° |
| 2026-05-08 00:15 | 49.36718 | 177.55013 | 37983 ft | 474 kts | 254° |
| 2026-05-08 00:15 | 49.34551 | 177.45543 | 37985 ft | 474 kts | 254° |
| 2026-05-08 00:16 | 49.32362 | 177.36020 | 37982 ft | 474 kts | 254° |
| 2026-05-08 00:16 | 49.30165 | 177.26507 | 37991 ft | 473 kts | 254° |
| 2026-05-08 00:17 | 49.27965 | 177.17021 | 37991 ft | 472 kts | 254° |
| 2026-05-08 00:17 | 49.25774 | 177.07614 | 37991 ft | 472 kts | 254° |
| 2026-05-08 00:18 | 49.23560 | 176.98150 | 37993 ft | 472 kts | 254° |
| 2026-05-08 00:18 | 49.21339 | 176.88699 | 37984 ft | 471 kts | 254° |
| 2026-05-08 00:19 | 49.19120 | 176.79300 | 37993 ft | 469 kts | 254° |
| 2026-05-08 00:19 | 49.16904 | 176.69949 | 37991 ft | 468 kts | 254° |
| 2026-05-08 00:20 | 49.14697 | 176.60679 | 37998 ft | 467 kts | 254° |
| 2026-05-08 00:20 | 49.12470 | 176.51359 | 37990 ft | 467 kts | 254° |
| 2026-05-08 00:21 | 49.10240 | 176.42069 | 37992 ft | 465 kts | 254° |
| 2026-05-08 00:21 | 49.08011 | 176.32828 | 37993 ft | 463 kts | 254° |
| 2026-05-08 00:22 | 49.05799 | 176.23690 | 37996 ft | 462 kts | 254° |
| 2026-05-08 00:22 | 49.03564 | 176.14493 | 37996 ft | 462 kts | 253° |
| 2026-05-08 00:23 | 49.01326 | 176.05327 | 37998 ft | 461 kts | 254° |
| 2026-05-08 00:23 | 48.99089 | 175.96200 | 37990 ft | 459 kts | 254° |
| 2026-05-08 00:24 | 48.96865 | 175.87163 | 38008 ft | 459 kts | 254° |
| 2026-05-08 00:24 | 48.94622 | 175.78086 | 37986 ft | 458 kts | 254° |
| 2026-05-08 00:25 | 48.92370 | 175.69010 | 37986 ft | 458 kts | 253° |
| 2026-05-08 00:25 | 48.90112 | 175.59946 | 37997 ft | 458 kts | 253° |
| 2026-05-08 00:26 | 48.87858 | 175.50940 | 38002 ft | 455 kts | 253° |
| 2026-05-08 00:26 | 48.85617 | 175.42016 | 38001 ft | 455 kts | 253° |
| 2026-05-08 00:27 | 48.83357 | 175.33050 | 38001 ft | 455 kts | 253° |
| 2026-05-08 00:27 | 48.81090 | 175.24092 | 38002 ft | 455 kts | 253° |
| 2026-05-08 00:28 | 48.78818 | 175.15154 | 38000 ft | 453 kts | 253° |
| 2026-05-08 00:28 | 48.76560 | 175.06306 | 38002 ft | 453 kts | 253° |
| 2026-05-08 00:29 | 48.74288 | 174.97437 | 38005 ft | 450 kts | 253° |
| 2026-05-08 00:29 | 48.72017 | 174.88605 | 38001 ft | 450 kts | 253° |
| 2026-05-08 00:30 | 48.69739 | 174.79780 | 38003 ft | 450 kts | 253° |
| 2026-05-08 00:30 | 48.67476 | 174.71046 | 38003 ft | 448 kts | 253° |
| 2026-05-08 00:31 | 48.65194 | 174.62274 | 38004 ft | 448 kts | 253° |
| 2026-05-08 00:31 | 48.62907 | 174.53516 | 38001 ft | 448 kts | 253° |
| 2026-05-08 00:32 | 48.60615 | 174.44770 | 38001 ft | 448 kts | 253° |
| 2026-05-08 00:32 | 48.58330 | 174.36086 | 37991 ft | 448 kts | 253° |
| 2026-05-08 00:33 | 48.56029 | 174.27377 | 37999 ft | 446 kts | 253° |
| 2026-05-08 00:33 | 48.53724 | 174.18680 | 37999 ft | 446 kts | 253° |
| 2026-05-08 00:34 | 48.51413 | 174.09996 | 37996 ft | 446 kts | 253° |
| 2026-05-08 00:34 | 48.49115 | 174.01396 | 37987 ft | 445 kts | 253° |
| 2026-05-08 00:35 | 48.46801 | 173.92769 | 37994 ft | 443 kts | 253° |
| 2026-05-08 00:35 | 48.44488 | 173.84169 | 37999 ft | 442 kts | 253° |
| 2026-05-08 00:36 | 48.42174 | 173.75595 | 37991 ft | 442 kts | 253° |
| 2026-05-08 00:36 | 48.39856 | 173.67040 | 37992 ft | 442 kts | 253° |
| 2026-05-08 00:37 | 48.37546 | 173.58546 | 37993 ft | 441 kts | 253° |
| 2026-05-08 00:38 | 48.34051 | 173.45756 | 37988 ft | 440 kts | 253° |
| 2026-05-08 00:38 | 48.31719 | 173.37262 | 37990 ft | 439 kts | 253° |
| 2026-05-08 00:39 | 48.29382 | 173.28778 | 37988 ft | 440 kts | 253° |
| 2026-05-08 00:39 | 48.27056 | 173.20364 | 37987 ft | 439 kts | 253° |
| 2026-05-08 00:40 | 48.24708 | 173.11903 | 37969 ft | 439 kts | 253° |
| 2026-05-08 00:40 | 48.22357 | 173.03467 | 37972 ft | 438 kts | 254° |
| 2026-05-08 00:41 | 48.20006 | 172.95051 | 37978 ft | 437 kts | 254° |
| 2026-05-08 00:41 | 48.17651 | 172.86647 | 37981 ft | 437 kts | 254° |
| 2026-05-08 00:42 | 48.15306 | 172.78309 | 37975 ft | 437 kts | 254° |
| 2026-05-08 00:42 | 48.12939 | 172.69935 | 37969 ft | 436 kts | 254° |
| 2026-05-08 00:43 | 48.10574 | 172.61591 | 37970 ft | 435 kts | 254° |
| 2026-05-08 00:43 | 48.08207 | 172.53260 | 37971 ft | 435 kts | 254° |
| 2026-05-08 00:44 | 48.05848 | 172.44991 | 37968 ft | 435 kts | 254° |
| 2026-05-08 00:44 | 48.03470 | 172.36682 | 37969 ft | 435 kts | 254° |
| 2026-05-08 00:45 | 48.01086 | 172.28390 | 37964 ft | 434 kts | 254° |
| 2026-05-08 00:45 | 47.98705 | 172.20134 | 37964 ft | 432 kts | 254° |
| 2026-05-08 00:46 | 47.96324 | 172.11898 | 37961 ft | 432 kts | 254° |
| 2026-05-08 00:46 | 47.93956 | 172.03737 | 37964 ft | 430 kts | 255° |
| 2026-05-08 00:47 | 47.91577 | 171.95566 | 37958 ft | 429 kts | 255° |
| 2026-05-08 00:47 | 47.89195 | 171.87413 | 37959 ft | 429 kts | 255° |
| 2026-05-08 00:48 | 47.86807 | 171.79265 | 37955 ft | 429 kts | 255° |
| 2026-05-08 00:48 | 47.84414 | 171.71131 | 37956 ft | 429 kts | 254° |
| 2026-05-08 00:49 | 47.82030 | 171.63053 | 37961 ft | 429 kts | 254° |
| 2026-05-08 00:49 | 47.79627 | 171.54936 | 37950 ft | 429 kts | 255° |
| 2026-05-08 00:50 | 47.77229 | 171.46875 | 37955 ft | 425 kts | 255° |
| 2026-05-08 00:50 | 47.74839 | 171.38855 | 37951 ft | 424 kts | 255° |
| 2026-05-08 00:51 | 47.72450 | 171.30856 | 37949 ft | 423 kts | 255° |
| 2026-05-08 00:51 | 47.70073 | 171.22927 | 37946 ft | 423 kts | 255° |
| 2026-05-08 00:52 | 47.67673 | 171.14951 | 37935 ft | 423 kts | 255° |
| 2026-05-08 00:52 | 47.65284 | 171.07053 | 37941 ft | 416 kts | 255° |
| 2026-05-08 00:53 | 47.62923 | 170.99260 | 37943 ft | 413 kts | 255° |
| 2026-05-08 00:53 | 47.60585 | 170.91550 | 37941 ft | 413 kts | 255° |
| 2026-05-08 00:54 | 47.58224 | 170.83793 | 37937 ft | 413 kts | 255° |
| 2026-05-08 00:54 | 47.55857 | 170.76049 | 37930 ft | 412 kts | 255° |
| 2026-05-08 00:55 | 47.53493 | 170.68349 | 37936 ft | 410 kts | 255° |
| 2026-05-08 00:55 | 47.51151 | 170.60736 | 37933 ft | 409 kts | 255° |
| 2026-05-08 00:56 | 47.48796 | 170.53094 | 37935 ft | 408 kts | 255° |
| 2026-05-08 00:56 | 47.46433 | 170.45454 | 37930 ft | 408 kts | 255° |
| 2026-05-08 00:57 | 47.44065 | 170.37826 | 37901 ft | 408 kts | 255° |
| 2026-05-08 00:57 | 47.41714 | 170.30285 | 37925 ft | 406 kts | 255° |
| 2026-05-08 00:58 | 47.39355 | 170.22727 | 37926 ft | 405 kts | 255° |
| 2026-05-08 00:58 | 47.36994 | 170.15185 | 37930 ft | 405 kts | 256° |
| 2026-05-08 00:59 | 47.34627 | 170.07645 | 37915 ft | 405 kts | 256° |
| 2026-05-08 00:59 | 47.32266 | 170.00151 | 37880 ft | 406 kts | 255° |
| 2026-05-08 01:00 | 47.29889 | 169.92634 | 37922 ft | 405 kts | 255° |
| 2026-05-08 01:00 | 47.27510 | 169.85124 | 37919 ft | 404 kts | 255° |
| 2026-05-08 01:01 | 47.25126 | 169.77625 | 37919 ft | 405 kts | 255° |
| 2026-05-08 01:01 | 47.22735 | 169.70127 | 37916 ft | 405 kts | 255° |
| 2026-05-08 01:02 | 47.20356 | 169.62689 | 37899 ft | 405 kts | 255° |
| 2026-05-08 01:02 | 47.17956 | 169.55207 | 37913 ft | 404 kts | 255° |
| 2026-05-08 01:03 | 47.15556 | 169.47744 | 37912 ft | 404 kts | 255° |
| 2026-05-08 01:03 | 47.13150 | 169.40287 | 37916 ft | 404 kts | 255° |
| 2026-05-08 01:04 | 47.10756 | 169.32886 | 37918 ft | 404 kts | 255° |
| 2026-05-08 01:04 | 47.08339 | 169.25437 | 37881 ft | 404 kts | 255° |
| 2026-05-08 01:05 | 47.05919 | 169.17995 | 37914 ft | 405 kts | 255° |
| 2026-05-08 01:05 | 47.03489 | 169.10551 | 37916 ft | 405 kts | 255° |
| 2026-05-08 01:06 | 47.01048 | 169.03095 | 37918 ft | 406 kts | 255° |
| 2026-05-08 01:06 | 46.98620 | 168.95700 | 37915 ft | 406 kts | 255° |
| 2026-05-08 01:07 | 46.96167 | 168.88249 | 37875 ft | 406 kts | 255° |
| 2026-05-08 01:07 | 46.93715 | 168.80823 | 37913 ft | 405 kts | 255° |
| 2026-05-08 01:08 | 46.91258 | 168.73401 | 37918 ft | 405 kts | 255° |
| 2026-05-08 01:08 | 46.88810 | 168.66030 | 37918 ft | 406 kts | 254° |
| 2026-05-08 01:09 | 46.86343 | 168.58620 | 37914 ft | 406 kts | 254° |
| 2026-05-08 01:09 | 46.83868 | 168.51211 | 37907 ft | 405 kts | 254° |
| 2026-05-08 01:10 | 46.81395 | 168.43826 | 37920 ft | 404 kts | 254° |
| 2026-05-08 01:10 | 46.78935 | 168.36504 | 37884 ft | 404 kts | 254° |
| 2026-05-08 01:11 | 46.76457 | 168.29145 | 37920 ft | 405 kts | 254° |
| 2026-05-08 01:11 | 46.73969 | 168.21773 | 37922 ft | 406 kts | 254° |
| 2026-05-08 01:12 | 46.71470 | 168.14396 | 37922 ft | 406 kts | 254° |
| 2026-05-08 01:12 | 46.68963 | 168.07018 | 37920 ft | 406 kts | 254° |
| 2026-05-08 01:13 | 46.66470 | 167.99699 | 37925 ft | 406 kts | 254° |
| 2026-05-08 01:13 | 46.63954 | 167.92334 | 37924 ft | 406 kts | 254° |
| 2026-05-08 01:14 | 46.61433 | 167.84975 | 37923 ft | 406 kts | 254° |
| 2026-05-08 01:14 | 46.58911 | 167.77630 | 37920 ft | 406 kts | 253° |
| 2026-05-08 01:15 | 46.56404 | 167.70357 | 37930 ft | 405 kts | 253° |
| 2026-05-08 01:15 | 46.53880 | 167.63050 | 37934 ft | 405 kts | 253° |
| 2026-05-08 01:16 | 46.51352 | 167.55746 | 37931 ft | 405 kts | 253° |
| 2026-05-08 01:16 | 46.48819 | 167.48453 | 37928 ft | 405 kts | 253° |
| 2026-05-08 01:17 | 46.46298 | 167.41214 | 37929 ft | 404 kts | 253° |
| 2026-05-08 01:17 | 46.43757 | 167.33941 | 37927 ft | 404 kts | 253° |
| 2026-05-08 01:18 | 46.41217 | 167.26687 | 37932 ft | 404 kts | 253° |
| 2026-05-08 01:18 | 46.38669 | 167.19428 | 37933 ft | 404 kts | 253° |
| 2026-05-08 01:19 | 46.36135 | 167.12232 | 37935 ft | 404 kts | 253° |
| 2026-05-08 01:19 | 46.33580 | 167.04994 | 37932 ft | 404 kts | 253° |
| 2026-05-08 01:20 | 46.31021 | 166.97770 | 37933 ft | 403 kts | 253° |
| 2026-05-08 01:20 | 46.28464 | 166.90566 | 37937 ft | 403 kts | 253° |
| 2026-05-08 01:21 | 46.25921 | 166.83421 | 37935 ft | 403 kts | 252° |
| 2026-05-08 01:21 | 46.23355 | 166.76228 | 37934 ft | 403 kts | 252° |
| 2026-05-08 01:22 | 46.20784 | 166.69045 | 37932 ft | 402 kts | 252° |
| 2026-05-08 01:22 | 46.18212 | 166.61877 | 37933 ft | 402 kts | 252° |
| 2026-05-08 01:23 | 46.15631 | 166.54697 | 37942 ft | 404 kts | 252° |
| 2026-05-08 01:23 | 46.13054 | 166.47554 | 37941 ft | 405 kts | 252° |
| 2026-05-08 01:24 | 46.10452 | 166.40362 | 37937 ft | 405 kts | 252° |
| 2026-05-08 01:24 | 46.07844 | 166.33173 | 37938 ft | 404 kts | 252° |
| 2026-05-08 01:25 | 46.05237 | 166.26006 | 37940 ft | 404 kts | 252° |
| 2026-05-08 01:25 | 46.02645 | 166.18897 | 37944 ft | 404 kts | 252° |
| 2026-05-08 01:26 | 46.00034 | 166.11753 | 37946 ft | 404 kts | 252° |
| 2026-05-08 01:26 | 45.97416 | 166.04610 | 37943 ft | 404 kts | 252° |
| 2026-05-08 01:27 | 45.94795 | 165.97476 | 37948 ft | 404 kts | 251° |
| 2026-05-08 01:27 | 45.92184 | 165.90391 | 37944 ft | 404 kts | 251° |
| 2026-05-08 01:28 | 45.89548 | 165.83258 | 37945 ft | 404 kts | 251° |
| 2026-05-08 01:28 | 45.86911 | 165.76140 | 37943 ft | 404 kts | 251° |
| 2026-05-08 01:29 | 45.84263 | 165.69008 | 37939 ft | 405 kts | 251° |
| 2026-05-08 01:29 | 45.81625 | 165.61921 | 37955 ft | 406 kts | 251° |
| 2026-05-08 01:30 | 45.78959 | 165.54783 | 37955 ft | 406 kts | 251° |
| 2026-05-08 01:30 | 45.76286 | 165.47645 | 37958 ft | 407 kts | 251° |
| 2026-05-08 01:31 | 45.73608 | 165.40510 | 37958 ft | 407 kts | 251° |
| 2026-05-08 01:31 | 45.70943 | 165.33426 | 37952 ft | 407 kts | 250° |
| 2026-05-08 01:32 | 45.68257 | 165.26306 | 37961 ft | 407 kts | 250° |
| 2026-05-08 01:32 | 45.65565 | 165.19191 | 37960 ft | 407 kts | 250° |
| 2026-05-08 01:33 | 45.62871 | 165.12086 | 37961 ft | 407 kts | 250° |
| 2026-05-08 01:33 | 45.60188 | 165.05031 | 37962 ft | 407 kts | 250° |
| 2026-05-08 01:34 | 45.57485 | 164.97938 | 37955 ft | 407 kts | 250° |
| 2026-05-08 01:34 | 45.54772 | 164.90836 | 37964 ft | 408 kts | 250° |
| 2026-05-08 01:35 | 45.52046 | 164.83720 | 37964 ft | 409 kts | 250° |
| 2026-05-08 01:35 | 45.49307 | 164.76594 | 37962 ft | 410 kts | 250° |
| 2026-05-08 01:36 | 45.46579 | 164.69512 | 37966 ft | 410 kts | 249° |
| 2026-05-08 01:36 | 45.43830 | 164.62395 | 37968 ft | 410 kts | 249° |
| 2026-05-08 01:37 | 45.41074 | 164.55277 | 37970 ft | 410 kts | 249° |
| 2026-05-08 01:37 | 45.38315 | 164.48168 | 37968 ft | 410 kts | 249° |
| 2026-05-08 01:38 | 45.35567 | 164.41108 | 37969 ft | 411 kts | 249° |
| 2026-05-08 01:38 | 45.32799 | 164.34012 | 37957 ft | 410 kts | 249° |
| 2026-05-08 01:39 | 45.30025 | 164.26916 | 37980 ft | 411 kts | 249° |
| 2026-05-08 01:39 | 45.27243 | 164.19825 | 37978 ft | 411 kts | 249° |
| 2026-05-08 01:40 | 45.24470 | 164.12771 | 37966 ft | 412 kts | 249° |
| 2026-05-08 01:40 | 45.21669 | 164.05662 | 37969 ft | 414 kts | 249° |
| 2026-05-08 01:41 | 45.18853 | 163.98534 | 37971 ft | 414 kts | 248° |
| 2026-05-08 01:41 | 45.16027 | 163.91403 | 37980 ft | 415 kts | 248° |
| 2026-05-08 01:42 | 45.13214 | 163.84324 | 37978 ft | 415 kts | 248° |
| 2026-05-08 01:42 | 45.10374 | 163.77195 | 37975 ft | 415 kts | 248° |
| 2026-05-08 01:43 | 45.07532 | 163.70074 | 37976 ft | 416 kts | 248° |
| 2026-05-08 01:43 | 45.04685 | 163.62960 | 37985 ft | 415 kts | 248° |
| 2026-05-08 01:44 | 45.01853 | 163.55903 | 37982 ft | 416 kts | 248° |
| 2026-05-08 01:44 | 44.98997 | 163.48804 | 37982 ft | 416 kts | 248° |
| 2026-05-08 01:45 | 44.96136 | 163.41711 | 37985 ft | 416 kts | 248° |
| 2026-05-08 01:45 | 44.93272 | 163.34624 | 37988 ft | 416 kts | 248° |
| 2026-05-08 01:46 | 44.90411 | 163.27564 | 37984 ft | 418 kts | 247° |
| 2026-05-08 01:46 | 44.87516 | 163.20441 | 37985 ft | 419 kts | 247° |
| 2026-05-08 01:47 | 44.84614 | 163.13320 | 37984 ft | 419 kts | 247° |
| 2026-05-08 01:47 | 44.81705 | 163.06200 | 37990 ft | 419 kts | 247° |
| 2026-05-08 01:48 | 44.77355 | 162.95582 | 37988 ft | 419 kts | 247° |
| 2026-05-08 01:48 | 44.74435 | 162.88478 | 37988 ft | 419 kts | 247° |
| 2026-05-08 01:49 | 44.71514 | 162.81389 | 37988 ft | 419 kts | 247° |
| 2026-05-08 01:49 | 44.69081 | 162.75496 | 37991 ft | 419 kts | 247° |
| 2026-05-08 01:50 | 44.65674 | 162.67266 | 37990 ft | 419 kts | 246° |
| 2026-05-08 01:50 | 44.62735 | 162.60187 | 37952 ft | 419 kts | 246° |
| 2026-05-08 01:51 | 44.60288 | 162.54306 | 37994 ft | 420 kts | 246° |
| 2026-05-08 01:51 | 44.57331 | 162.47211 | 37993 ft | 422 kts | 246° |
| 2026-05-08 01:52 | 44.53883 | 162.38968 | 37993 ft | 422 kts | 246° |
| 2026-05-08 01:52 | 44.51395 | 162.33035 | 37993 ft | 421 kts | 246° |
| 2026-05-08 01:53 | 44.48442 | 162.26009 | 37996 ft | 421 kts | 246° |
| 2026-05-08 01:53 | 44.45467 | 162.18944 | 37996 ft | 421 kts | 246° |
| 2026-05-08 01:54 | 44.42485 | 162.11882 | 37996 ft | 421 kts | 246° |
| 2026-05-08 01:54 | 44.39500 | 162.04830 | 37997 ft | 421 kts | 246° |
| 2026-05-08 01:55 | 44.36532 | 161.97836 | 37996 ft | 421 kts | 246° |
| 2026-05-08 01:55 | 44.33540 | 161.90802 | 37993 ft | 421 kts | 246° |
| 2026-05-08 01:56 | 44.30541 | 161.83769 | 37987 ft | 421 kts | 245° |
| 2026-05-08 01:56 | 44.27532 | 161.76730 | 38001 ft | 423 kts | 245° |
| 2026-05-08 01:57 | 44.24533 | 161.69731 | 38003 ft | 424 kts | 245° |
| 2026-05-08 01:57 | 44.21507 | 161.62688 | 37998 ft | 424 kts | 245° |
| 2026-05-08 01:58 | 44.18472 | 161.55643 | 38004 ft | 424 kts | 245° |
| 2026-05-08 01:58 | 44.15438 | 161.48615 | 38004 ft | 424 kts | 245° |
| 2026-05-08 01:59 | 44.12415 | 161.41629 | 38002 ft | 424 kts | 245° |
| 2026-05-08 01:59 | 44.09371 | 161.34613 | 38004 ft | 424 kts | 245° |
| 2026-05-08 02:00 | 44.06321 | 161.27600 | 38003 ft | 424 kts | 245° |
| 2026-05-08 02:00 | 44.03268 | 161.20596 | 38004 ft | 424 kts | 245° |
| 2026-05-08 02:01 | 44.00231 | 161.13646 | 38006 ft | 423 kts | 245° |
| 2026-05-08 02:01 | 43.97168 | 161.06652 | 38012 ft | 425 kts | 245° |
| 2026-05-08 02:02 | 43.94091 | 160.99642 | 37995 ft | 426 kts | 245° |
| 2026-05-08 02:02 | 43.90998 | 160.92618 | 38013 ft | 427 kts | 245° |
| 2026-05-08 02:03 | 43.87904 | 160.85606 | 38011 ft | 426 kts | 244° |
| 2026-05-08 02:03 | 43.84832 | 160.78663 | 38009 ft | 425 kts | 244° |
| 2026-05-08 02:04 | 43.81734 | 160.71677 | 38008 ft | 425 kts | 244° |
| 2026-05-08 02:04 | 43.78633 | 160.64699 | 38010 ft | 425 kts | 244° |
| 2026-05-08 02:05 | 43.75552 | 160.57781 | 38009 ft | 425 kts | 244° |
| 2026-05-08 02:05 | 43.72447 | 160.50830 | 38012 ft | 425 kts | 244° |
| 2026-05-08 02:06 | 43.69341 | 160.43892 | 38011 ft | 424 kts | 244° |
| 2026-05-08 02:06 | 43.66230 | 160.36958 | 38001 ft | 425 kts | 244° |
| 2026-05-08 02:07 | 43.63109 | 160.30017 | 38000 ft | 426 kts | 244° |
| 2026-05-08 02:07 | 43.59999 | 160.23119 | 38013 ft | 426 kts | 244° |
| 2026-05-08 02:08 | 43.56862 | 160.16178 | 38014 ft | 426 kts | 244° |
| 2026-05-08 02:08 | 43.53720 | 160.09244 | 38020 ft | 426 kts | 244° |
| 2026-05-08 02:09 | 43.50573 | 160.02313 | 38017 ft | 426 kts | 244° |
| 2026-05-08 02:09 | 43.47448 | 159.95445 | 38013 ft | 426 kts | 243° |
| 2026-05-08 02:10 | 43.44295 | 159.88535 | 38018 ft | 426 kts | 243° |
| 2026-05-08 02:10 | 43.41141 | 159.81640 | 38016 ft | 426 kts | 243° |
| 2026-05-08 02:11 | 43.37981 | 159.74747 | 38020 ft | 426 kts | 243° |
| 2026-05-08 02:11 | 43.34839 | 159.67906 | 38017 ft | 426 kts | 243° |
| 2026-05-08 02:12 | 43.31670 | 159.61025 | 38013 ft | 426 kts | 243° |
| 2026-05-08 02:12 | 43.28499 | 159.54157 | 38014 ft | 426 kts | 243° |
| 2026-05-08 02:13 | 43.25322 | 159.47290 | 38014 ft | 426 kts | 243° |
| 2026-05-08 02:13 | 43.22162 | 159.40475 | 38013 ft | 426 kts | 243° |
| 2026-05-08 02:14 | 43.18978 | 159.33627 | 38014 ft | 426 kts | 243° |
| 2026-05-08 02:14 | 43.15790 | 159.26783 | 38015 ft | 426 kts | 243° |
| 2026-05-08 02:15 | 43.12596 | 159.19945 | 38011 ft | 426 kts | 243° |
| 2026-05-08 02:15 | 43.09402 | 159.13120 | 37999 ft | 426 kts | 243° |
| 2026-05-08 02:16 | 43.06223 | 159.06344 | 37994 ft | 426 kts | 243° |
| 2026-05-08 02:16 | 43.03023 | 158.99540 | 37998 ft | 426 kts | 242° |
| 2026-05-08 02:17 | 42.99809 | 158.92720 | 38008 ft | 427 kts | 242° |
| 2026-05-08 02:17 | 42.96584 | 158.85895 | 38007 ft | 428 kts | 242° |
| 2026-05-08 02:18 | 42.93375 | 158.79120 | 38002 ft | 427 kts | 242° |
| 2026-05-08 02:18 | 42.90145 | 158.72314 | 38002 ft | 427 kts | 242° |
| 2026-05-08 02:19 | 42.86911 | 158.65515 | 38005 ft | 427 kts | 242° |
| 2026-05-08 02:19 | 42.83674 | 158.58725 | 38004 ft | 427 kts | 242° |
| 2026-05-08 02:20 | 42.80432 | 158.51942 | 38006 ft | 427 kts | 242° |
| 2026-05-08 02:20 | 42.77208 | 158.45210 | 38004 ft | 427 kts | 242° |
| 2026-05-08 02:21 | 42.73957 | 158.38436 | 38004 ft | 427 kts | 242° |
| 2026-05-08 02:21 | 42.70702 | 158.31671 | 37964 ft | 428 kts | 242° |
| 2026-05-08 02:22 | 42.67437 | 158.24900 | 38004 ft | 429 kts | 242° |
| 2026-05-08 02:22 | 42.64176 | 158.18153 | 37999 ft | 430 kts | 241° |
| 2026-05-08 02:23 | 42.60890 | 158.11372 | 37999 ft | 430 kts | 241° |
| 2026-05-08 02:23 | 42.57603 | 158.04603 | 37999 ft | 429 kts | 241° |
| 2026-05-08 02:24 | 42.54313 | 157.97842 | 37998 ft | 429 kts | 241° |
| 2026-05-08 02:24 | 42.51040 | 157.91131 | 37999 ft | 429 kts | 241° |
| 2026-05-08 02:25 | 42.47745 | 157.84389 | 37997 ft | 429 kts | 241° |
| 2026-05-08 02:25 | 42.44445 | 157.77653 | 37996 ft | 429 kts | 241° |
| 2026-05-08 02:26 | 42.41144 | 157.70931 | 37996 ft | 429 kts | 241° |
| 2026-05-08 02:26 | 42.37836 | 157.64209 | 37962 ft | 429 kts | 241° |
| 2026-05-08 02:27 | 42.34541 | 157.57526 | 37996 ft | 432 kts | 241° |
| 2026-05-08 02:27 | 42.31199 | 157.50764 | 37992 ft | 433 kts | 240° |
| 2026-05-08 02:28 | 42.27846 | 157.43998 | 37986 ft | 434 kts | 240° |
| 2026-05-08 02:28 | 42.24486 | 157.37234 | 37992 ft | 434 kts | 240° |
| 2026-05-08 02:29 | 42.21147 | 157.30524 | 37991 ft | 434 kts | 240° |
| 2026-05-08 02:29 | 42.17780 | 157.23776 | 37986 ft | 434 kts | 240° |
| 2026-05-08 02:30 | 42.14410 | 157.17032 | 37988 ft | 434 kts | 240° |
| 2026-05-08 02:30 | 42.11031 | 157.10288 | 37985 ft | 434 kts | 240° |
| 2026-05-08 02:31 | 42.07670 | 157.03595 | 37985 ft | 434 kts | 240° |
| 2026-05-08 02:31 | 42.04284 | 156.96868 | 37972 ft | 434 kts | 240° |
| 2026-05-08 02:32 | 42.00883 | 156.90123 | 37979 ft | 436 kts | 240° |
| 2026-05-08 02:32 | 41.97471 | 156.83373 | 37980 ft | 437 kts | 240° |
| 2026-05-08 02:33 | 41.94088 | 156.76696 | 37979 ft | 437 kts | 240° |
| 2026-05-08 02:33 | 41.90687 | 156.69999 | 37974 ft | 437 kts | 240° |
| 2026-05-08 02:34 | 41.87261 | 156.63265 | 37971 ft | 437 kts | 240° |
| 2026-05-08 02:34 | 41.83832 | 156.56542 | 37965 ft | 437 kts | 240° |
| 2026-05-08 02:35 | 41.80399 | 156.49825 | 37970 ft | 436 kts | 240° |
| 2026-05-08 02:35 | 41.76988 | 156.43167 | 37968 ft | 436 kts | 240° |
| 2026-05-08 02:36 | 41.73553 | 156.36476 | 37963 ft | 436 kts | 239° |
| 2026-05-08 02:36 | 41.70113 | 156.29790 | 37961 ft | 436 kts | 239° |
| 2026-05-08 02:37 | 41.66660 | 156.23090 | 37954 ft | 437 kts | 239° |
| 2026-05-08 02:37 | 41.63229 | 156.16451 | 37960 ft | 436 kts | 239° |
| 2026-05-08 02:38 | 41.59776 | 156.09785 | 37960 ft | 436 kts | 239° |
| 2026-05-08 02:38 | 41.56319 | 156.03126 | 37969 ft | 436 kts | 239° |
| 2026-05-08 02:39 | 41.52859 | 155.96474 | 37945 ft | 436 kts | 239° |
| 2026-05-08 02:39 | 41.49396 | 155.89829 | 37940 ft | 436 kts | 239° |
| 2026-05-08 02:40 | 41.45959 | 155.83251 | 37952 ft | 435 kts | 239° |
| 2026-05-08 02:40 | 41.42499 | 155.76644 | 37949 ft | 435 kts | 239° |
| 2026-05-08 02:41 | 41.39035 | 155.70041 | 37941 ft | 435 kts | 239° |
| 2026-05-08 02:41 | 41.35566 | 155.63443 | 37940 ft | 435 kts | 238° |
| 2026-05-08 02:42 | 41.32116 | 155.56893 | 37929 ft | 435 kts | 238° |
| 2026-05-08 02:42 | 41.28634 | 155.50301 | 37939 ft | 436 kts | 238° |
| 2026-05-08 02:43 | 41.25145 | 155.43711 | 37936 ft | 436 kts | 238° |
| 2026-05-08 02:43 | 41.21654 | 155.37128 | 37938 ft | 436 kts | 238° |
| 2026-05-08 02:44 | 41.18185 | 155.30601 | 37931 ft | 436 kts | 238° |
| 2026-05-08 02:44 | 41.14687 | 155.24033 | 37923 ft | 436 kts | 238° |
| 2026-05-08 02:45 | 41.11186 | 155.17474 | 37916 ft | 436 kts | 238° |
| 2026-05-08 02:45 | 41.07675 | 155.10909 | 37922 ft | 436 kts | 238° |
| 2026-05-08 02:46 | 41.04188 | 155.04403 | 37915 ft | 436 kts | 238° |
| 2026-05-08 02:46 | 41.00673 | 154.97859 | 37910 ft | 436 kts | 237° |
| 2026-05-08 02:47 | 40.97155 | 154.91324 | 37914 ft | 436 kts | 237° |
| 2026-05-08 02:47 | 40.93633 | 154.84795 | 37910 ft | 436 kts | 237° |
| 2026-05-08 02:48 | 40.90110 | 154.78279 | 37910 ft | 436 kts | 237° |
| 2026-05-08 02:48 | 40.86610 | 154.71818 | 37905 ft | 435 kts | 237° |
| 2026-05-08 02:49 | 40.83077 | 154.65307 | 37905 ft | 436 kts | 237° |
| 2026-05-08 02:49 | 40.79540 | 154.58802 | 37891 ft | 435 kts | 237° |
| 2026-05-08 02:50 | 40.76005 | 154.52317 | 37900 ft | 436 kts | 237° |
| 2026-05-08 02:50 | 40.72480 | 154.45869 | 37895 ft | 436 kts | 237° |
| 2026-05-08 02:51 | 40.68931 | 154.39384 | 37895 ft | 436 kts | 236° |
| 2026-05-08 02:51 | 40.65374 | 154.32895 | 37888 ft | 437 kts | 236° |
| 2026-05-08 02:52 | 40.61802 | 154.26397 | 37888 ft | 439 kts | 236° |
| 2026-05-08 02:52 | 40.58241 | 154.19939 | 37888 ft | 439 kts | 236° |
| 2026-05-08 02:53 | 40.54653 | 154.13439 | 37888 ft | 439 kts | 236° |
| 2026-05-08 02:53 | 40.51060 | 154.06944 | 37884 ft | 439 kts | 236° |
| 2026-05-08 02:54 | 40.47465 | 154.00454 | 37883 ft | 440 kts | 235° |
| 2026-05-08 02:54 | 40.43875 | 153.93992 | 37877 ft | 441 kts | 235° |
| 2026-05-08 02:55 | 40.38442 | 153.84237 | 37870 ft | 441 kts | 235° |
| 2026-05-08 02:56 | 40.34814 | 153.77739 | 37873 ft | 441 kts | 235° |
| 2026-05-08 02:56 | 40.31183 | 153.71249 | 37869 ft | 442 kts | 234° |
| 2026-05-08 02:57 | 40.27568 | 153.64801 | 37864 ft | 442 kts | 234° |
| 2026-05-08 02:57 | 40.23922 | 153.58312 | 37859 ft | 443 kts | 234° |
| 2026-05-08 02:58 | 40.20271 | 153.51827 | 37859 ft | 443 kts | 234° |
| 2026-05-08 02:58 | 40.16613 | 153.45343 | 37856 ft | 443 kts | 234° |
| 2026-05-08 02:59 | 40.12977 | 153.38911 | 37855 ft | 444 kts | 234° |
| 2026-05-08 02:59 | 40.09301 | 153.32421 | 37858 ft | 445 kts | 234° |
| 2026-05-08 03:00 | 40.05616 | 153.25930 | 37855 ft | 445 kts | 234° |
| 2026-05-08 03:00 | 40.01928 | 153.19448 | 37857 ft | 445 kts | 234° |
| 2026-05-08 03:01 | 39.98263 | 153.13016 | 37855 ft | 445 kts | 234° |
| 2026-05-08 03:01 | 39.94560 | 153.06535 | 37847 ft | 446 kts | 234° |
| 2026-05-08 03:02 | 39.90847 | 153.00046 | 37850 ft | 447 kts | 234° |
| 2026-05-08 03:02 | 39.87128 | 152.93560 | 37853 ft | 447 kts | 234° |
| 2026-05-08 03:03 | 39.83404 | 152.87082 | 37856 ft | 447 kts | 234° |
| 2026-05-08 03:03 | 39.79704 | 152.80655 | 37853 ft | 448 kts | 234° |
| 2026-05-08 03:04 | 39.75959 | 152.74165 | 37845 ft | 449 kts | 234° |
| 2026-05-08 03:04 | 39.72203 | 152.67670 | 37847 ft | 450 kts | 234° |
| 2026-05-08 03:05 | 39.68441 | 152.61178 | 37841 ft | 450 kts | 234° |
| 2026-05-08 03:05 | 39.64701 | 152.54736 | 37842 ft | 450 kts | 234° |
| 2026-05-08 03:06 | 39.60931 | 152.48255 | 37848 ft | 451 kts | 233° |
| 2026-05-08 03:06 | 39.57145 | 152.41760 | 37846 ft | 451 kts | 233° |
| 2026-05-08 03:07 | 39.53358 | 152.35278 | 37847 ft | 451 kts | 233° |
| 2026-05-08 03:07 | 39.49588 | 152.28838 | 37846 ft | 451 kts | 233° |
| 2026-05-08 03:08 | 39.45793 | 152.22367 | 37855 ft | 451 kts | 233° |
| 2026-05-08 03:08 | 39.41992 | 152.15901 | 37856 ft | 451 kts | 233° |
| 2026-05-08 03:09 | 39.38188 | 152.09441 | 37857 ft | 451 kts | 233° |
| 2026-05-08 03:09 | 39.34406 | 152.03032 | 37855 ft | 452 kts | 233° |
| 2026-05-08 03:10 | 39.30615 | 151.96622 | 37860 ft | 452 kts | 233° |
| 2026-05-08 03:10 | 39.26798 | 151.90180 | 37862 ft | 452 kts | 233° |
| 2026-05-08 03:11 | 39.22974 | 151.83739 | 37857 ft | 452 kts | 233° |
| 2026-05-08 03:11 | 39.19169 | 151.77343 | 37859 ft | 453 kts | 233° |
| 2026-05-08 03:12 | 39.15331 | 151.70904 | 37867 ft | 453 kts | 233° |
| 2026-05-08 03:12 | 39.11489 | 151.64471 | 37865 ft | 453 kts | 233° |
| 2026-05-08 03:13 | 39.07644 | 151.58047 | 37865 ft | 454 kts | 233° |
| 2026-05-08 03:13 | 39.03788 | 151.51616 | 37873 ft | 454 kts | 233° |
| 2026-05-08 03:14 | 38.99950 | 151.45230 | 37871 ft | 454 kts | 233° |
| 2026-05-08 03:14 | 38.96085 | 151.38811 | 37870 ft | 454 kts | 233° |
| 2026-05-08 03:15 | 38.92213 | 151.32393 | 37873 ft | 454 kts | 233° |
| 2026-05-08 03:15 | 38.88336 | 151.25980 | 37873 ft | 455 kts | 232° |
| 2026-05-08 03:16 | 38.84476 | 151.19607 | 37875 ft | 456 kts | 232° |
| 2026-05-08 03:16 | 38.80577 | 151.13184 | 37873 ft | 456 kts | 232° |
| 2026-05-08 03:17 | 38.76676 | 151.06768 | 37873 ft | 456 kts | 232° |
| 2026-05-08 03:17 | 38.72768 | 151.00355 | 37881 ft | 457 kts | 232° |
| 2026-05-08 03:18 | 38.68884 | 150.93993 | 37882 ft | 457 kts | 232° |
| 2026-05-08 03:18 | 38.64967 | 150.87590 | 37878 ft | 457 kts | 232° |
| 2026-05-08 03:19 | 38.61048 | 150.81197 | 37876 ft | 457 kts | 232° |
| 2026-05-08 03:19 | 38.57126 | 150.74811 | 37886 ft | 457 kts | 232° |
| 2026-05-08 03:20 | 38.53194 | 150.68421 | 37877 ft | 458 kts | 232° |
| 2026-05-08 03:20 | 38.49279 | 150.62074 | 37887 ft | 459 kts | 232° |
| 2026-05-08 03:21 | 38.45325 | 150.55673 | 37890 ft | 459 kts | 232° |
| 2026-05-08 03:21 | 38.41366 | 150.49278 | 37891 ft | 459 kts | 232° |
| 2026-05-08 03:22 | 38.37431 | 150.42934 | 37892 ft | 459 kts | 232° |
| 2026-05-08 03:22 | 38.33472 | 150.36564 | 37895 ft | 458 kts | 232° |
| 2026-05-08 03:23 | 38.29512 | 150.30205 | 37901 ft | 458 kts | 232° |
| 2026-05-08 03:23 | 38.25545 | 150.23847 | 37900 ft | 458 kts | 232° |
| 2026-05-08 03:24 | 38.21580 | 150.17504 | 37899 ft | 458 kts | 232° |
| 2026-05-08 03:24 | 38.17609 | 150.11165 | 37903 ft | 458 kts | 232° |
| 2026-05-08 03:25 | 38.13660 | 150.04872 | 37902 ft | 459 kts | 232° |
| 2026-05-08 03:25 | 38.09986 | 149.98258 | 37913 ft | 459 kts | 241° |
| 2026-05-08 03:26 | 38.06965 | 149.91124 | 37905 ft | 459 kts | 242° |
| 2026-05-08 03:26 | 38.04057 | 149.83910 | 37906 ft | 459 kts | 243° |
| 2026-05-08 03:27 | 38.01173 | 149.76736 | 37904 ft | 460 kts | 243° |
| 2026-05-08 03:27 | 37.98252 | 149.69525 | 37906 ft | 460 kts | 243° |
| 2026-05-08 03:28 | 37.95321 | 149.62332 | 37910 ft | 460 kts | 242° |
| 2026-05-08 03:28 | 37.92381 | 149.55140 | 37911 ft | 459 kts | 242° |
| 2026-05-08 03:29 | 37.89442 | 149.47963 | 37911 ft | 459 kts | 242° |
| 2026-05-08 03:29 | 37.86517 | 149.40836 | 37911 ft | 459 kts | 242° |
| 2026-05-08 03:30 | 37.82093 | 149.30088 | 37911 ft | 459 kts | 242° |
| 2026-05-08 03:31 | 37.76201 | 149.15829 | 37908 ft | 459 kts | 242° |
| 2026-05-08 03:32 | 37.71753 | 149.05108 | 37909 ft | 459 kts | 242° |
| 2026-05-08 03:32 | 37.68798 | 148.98006 | 37905 ft | 457 kts | 242° |
| 2026-05-08 03:33 | 37.65841 | 148.90915 | 37911 ft | 456 kts | 242° |
| 2026-05-08 03:33 | 37.62905 | 148.83888 | 37911 ft | 456 kts | 242° |
| 2026-05-08 03:34 | 37.59942 | 148.76812 | 37908 ft | 456 kts | 242° |
| 2026-05-08 03:34 | 37.56981 | 148.69757 | 37908 ft | 455 kts | 242° |
| 2026-05-08 03:35 | 37.54021 | 148.62720 | 37906 ft | 454 kts | 242° |
| 2026-05-08 03:35 | 37.51074 | 148.55729 | 37903 ft | 455 kts | 242° |
| 2026-05-08 03:36 | 37.48100 | 148.48691 | 37902 ft | 455 kts | 242° |
| 2026-05-08 03:36 | 37.45124 | 148.41665 | 37900 ft | 454 kts | 242° |
| 2026-05-08 03:37 | 37.42148 | 148.34652 | 37901 ft | 454 kts | 242° |
| 2026-05-08 03:37 | 37.39169 | 148.27648 | 37904 ft | 454 kts | 242° |
| 2026-05-08 03:38 | 37.36209 | 148.20704 | 37904 ft | 454 kts | 242° |
| 2026-05-08 03:38 | 37.33225 | 148.13718 | 37903 ft | 453 kts | 242° |
| 2026-05-08 03:39 | 37.30244 | 148.06754 | 37900 ft | 453 kts | 242° |
| 2026-05-08 03:39 | 37.27259 | 147.99797 | 37897 ft | 452 kts | 242° |
| 2026-05-08 03:40 | 37.24290 | 147.92891 | 37900 ft | 452 kts | 242° |
| 2026-05-08 03:40 | 37.21303 | 147.85959 | 37900 ft | 451 kts | 242° |
| 2026-05-08 03:41 | 37.18318 | 147.79044 | 37898 ft | 451 kts | 242° |
| 2026-05-08 03:41 | 37.15329 | 147.72137 | 37898 ft | 451 kts | 242° |
| 2026-05-08 03:42 | 37.12357 | 147.65284 | 37895 ft | 451 kts | 242° |
| 2026-05-08 03:42 | 37.09361 | 147.58387 | 37895 ft | 451 kts | 241° |
| 2026-05-08 03:43 | 37.06360 | 147.51497 | 37895 ft | 451 kts | 241° |
| 2026-05-08 03:43 | 37.03355 | 147.44611 | 37895 ft | 451 kts | 241° |
| 2026-05-08 03:44 | 37.00346 | 147.37731 | 37893 ft | 451 kts | 241° |
| 2026-05-08 03:44 | 36.97355 | 147.30905 | 37889 ft | 450 kts | 241° |
| 2026-05-08 03:45 | 36.94342 | 147.24045 | 37888 ft | 450 kts | 241° |
| 2026-05-08 03:45 | 36.91324 | 147.17186 | 37888 ft | 450 kts | 241° |
| 2026-05-08 03:46 | 36.88302 | 147.10334 | 37880 ft | 450 kts | 241° |
| 2026-05-08 03:46 | 36.85303 | 147.03548 | 37883 ft | 448 kts | 241° |
| 2026-05-08 03:47 | 36.82288 | 146.96740 | 37889 ft | 448 kts | 241° |
| 2026-05-08 03:47 | 36.79271 | 146.89942 | 37884 ft | 448 kts | 241° |
| 2026-05-08 03:48 | 36.76250 | 146.83147 | 37882 ft | 448 kts | 241° |
| 2026-05-08 03:48 | 36.73245 | 146.76404 | 37884 ft | 448 kts | 241° |
| 2026-05-08 03:49 | 36.70214 | 146.69614 | 37884 ft | 448 kts | 241° |
| 2026-05-08 03:49 | 36.67178 | 146.62830 | 37881 ft | 448 kts | 241° |
| 2026-05-08 03:50 | 36.64161 | 146.56100 | 37881 ft | 448 kts | 240° |
| 2026-05-08 03:50 | 36.61121 | 146.49334 | 37878 ft | 448 kts | 240° |
| 2026-05-08 03:51 | 36.58076 | 146.42570 | 37875 ft | 448 kts | 240° |
| 2026-05-08 03:51 | 36.55027 | 146.35812 | 37884 ft | 448 kts | 240° |
| 2026-05-08 03:52 | 36.51975 | 146.29060 | 37879 ft | 448 kts | 240° |
| 2026-05-08 03:52 | 36.48936 | 146.22349 | 37881 ft | 449 kts | 240° |
| 2026-05-08 03:53 | 36.45867 | 146.15588 | 37881 ft | 449 kts | 240° |
| 2026-05-08 03:53 | 36.42795 | 146.08834 | 37881 ft | 449 kts | 240° |
| 2026-05-08 03:54 | 36.39719 | 146.02083 | 37885 ft | 449 kts | 240° |
| 2026-05-08 03:54 | 36.36656 | 145.95374 | 37881 ft | 450 kts | 240° |
| 2026-05-08 03:55 | 36.33501 | 145.88479 | 37881 ft | 451 kts | 240° |
| 2026-05-08 03:55 | 36.30404 | 145.81725 | 37881 ft | 451 kts | 240° |
| 2026-05-08 03:56 | 36.27301 | 145.74971 | 37884 ft | 451 kts | 240° |
| 2026-05-08 03:56 | 36.24193 | 145.68220 | 37884 ft | 451 kts | 240° |
| 2026-05-08 03:57 | 36.21098 | 145.61509 | 37881 ft | 452 kts | 240° |
| 2026-05-08 03:57 | 36.17980 | 145.54763 | 37878 ft | 452 kts | 240° |
| 2026-05-08 03:58 | 36.15128 | 145.47853 | 37879 ft | 451 kts | 249° |
| 2026-05-08 03:58 | 36.13681 | 145.40320 | 37878 ft | 452 kts | 260° |
| 2026-05-08 03:59 | 36.12947 | 145.32643 | 37878 ft | 453 kts | 262° |
| 2026-05-08 03:59 | 36.12317 | 145.24899 | 37872 ft | 452 kts | 262° |
| 2026-05-08 04:00 | 36.11674 | 145.17177 | 37873 ft | 451 kts | 262° |
| 2026-05-08 04:00 | 36.11003 | 145.09471 | 37873 ft | 450 kts | 262° |
| 2026-05-08 04:01 | 36.10322 | 145.01827 | 37869 ft | 450 kts | 262° |
| 2026-05-08 04:01 | 36.09633 | 144.94142 | 37862 ft | 449 kts | 262° |
| 2026-05-08 04:02 | 36.08940 | 144.86469 | 37861 ft | 449 kts | 262° |
| 2026-05-08 04:02 | 36.08243 | 144.78801 | 37861 ft | 449 kts | 262° |
| 2026-05-08 04:03 | 36.07547 | 144.71185 | 37862 ft | 448 kts | 261° |
| 2026-05-08 04:03 | 36.06489 | 144.59717 | 37866 ft | 448 kts | 261° |
| 2026-05-08 04:04 | 36.05776 | 144.52072 | 37853 ft | 448 kts | 261° |
| 2026-05-08 04:04 | 36.05061 | 144.44435 | 37853 ft | 447 kts | 261° |
| 2026-05-08 04:05 | 36.04347 | 144.36870 | 37854 ft | 446 kts | 261° |
| 2026-05-08 04:05 | 36.03624 | 144.29271 | 37853 ft | 446 kts | 261° |
| 2026-05-08 04:06 | 36.02897 | 144.21666 | 37848 ft | 446 kts | 260° |
| 2026-05-08 04:06 | 36.02288 | 144.15349 | 37848 ft | 445 kts | 260° |
| 2026-05-08 04:07 | 36.01435 | 144.06524 | 37846 ft | 445 kts | 260° |
| 2026-05-08 04:07 | 36.00694 | 143.98934 | 37845 ft | 445 kts | 260° |
| 2026-05-08 04:08 | 36.00071 | 143.92625 | 37837 ft | 445 kts | 260° |
| 2026-05-08 04:08 | 35.99319 | 143.85044 | 37837 ft | 445 kts | 260° |
| 2026-05-08 04:09 | 35.98440 | 143.76224 | 37842 ft | 445 kts | 260° |
| 2026-05-08 04:09 | 35.97803 | 143.69872 | 37840 ft | 445 kts | 260° |
| 2026-05-08 04:10 | 35.97043 | 143.62344 | 37834 ft | 445 kts | 259° |
| 2026-05-08 04:10 | 35.96273 | 143.54761 | 37834 ft | 445 kts | 259° |
| 2026-05-08 04:11 | 35.95503 | 143.47188 | 37832 ft | 445 kts | 259° |
| 2026-05-08 04:11 | 35.94724 | 143.39627 | 37831 ft | 444 kts | 259° |
| 2026-05-08 04:12 | 35.93945 | 143.32119 | 37829 ft | 444 kts | 259° |
| 2026-05-08 04:12 | 35.93606 | 143.24567 | 37831 ft | 449 kts | 269° |
| 2026-05-08 04:13 | 35.94847 | 143.16966 | 37826 ft | 458 kts | 283° |
| 2026-05-08 04:13 | 35.97052 | 143.09572 | 37823 ft | 460 kts | 285° |
| 2026-05-08 04:14 | 35.99408 | 143.02224 | 37820 ft | 460 kts | 285° |
| 2026-05-08 04:14 | 36.01736 | 142.94927 | 37812 ft | 459 kts | 285° |
| 2026-05-08 04:15 | 36.04044 | 142.87579 | 37811 ft | 459 kts | 284° |
| 2026-05-08 04:15 | 36.06336 | 142.80219 | 37807 ft | 459 kts | 284° |
| 2026-05-08 04:16 | 36.08621 | 142.72855 | 37804 ft | 459 kts | 284° |
| 2026-05-08 04:16 | 36.10893 | 142.65521 | 37799 ft | 460 kts | 284° |
| 2026-05-08 04:17 | 36.13176 | 142.58136 | 37797 ft | 460 kts | 284° |
| 2026-05-08 04:17 | 36.15366 | 142.50712 | 37800 ft | 456 kts | 279° |
| 2026-05-08 04:18 | 36.16325 | 142.43078 | 37794 ft | 445 kts | 265° |
| 2026-05-08 04:18 | 36.15557 | 142.35653 | 37787 ft | 436 kts | 251° |
| 2026-05-08 04:19 | 36.13380 | 142.28687 | 37789 ft | 434 kts | 244° |
| 2026-05-08 04:19 | 36.10892 | 142.21884 | 37790 ft | 435 kts | 244° |
| 2026-05-08 04:20 | 36.08374 | 142.15081 | 37789 ft | 435 kts | 244° |
| 2026-05-08 04:20 | 36.05900 | 142.08315 | 37791 ft | 435 kts | 244° |
| 2026-05-08 04:21 | 36.03441 | 142.01485 | 37740 ft | 433 kts | 245° |
| 2026-05-08 04:21 | 36.02230 | 141.98108 | 37472 ft | 425 kts | 245° |
| 2026-05-08 04:21 | 36.01037 | 141.94787 | 37055 ft | 422 kts | 245° |
| 2026-05-08 04:22 | 35.99845 | 141.91476 | 36533 ft | 422 kts | 245° |
| 2026-05-08 04:22 | 35.98663 | 141.88200 | 36033 ft | 424 kts | 245° |
| 2026-05-08 04:22 | 35.97461 | 141.84876 | 35541 ft | 425 kts | 245° |
| 2026-05-08 04:22 | 35.96251 | 141.81533 | 35052 ft | 427 kts | 245° |
| 2026-05-08 04:23 | 35.95055 | 141.78172 | 34569 ft | 429 kts | 247° |
| 2026-05-08 04:23 | 35.94077 | 141.74690 | 34089 ft | 431 kts | 252° |
| 2026-05-08 04:23 | 35.93226 | 141.71140 | 33599 ft | 432 kts | 252° |
| 2026-05-08 04:23 | 35.92409 | 141.67558 | 33058 ft | 434 kts | 253° |
| 2026-05-08 04:24 | 35.91610 | 141.63960 | 32561 ft | 436 kts | 253° |
| 2026-05-08 04:24 | 35.90816 | 141.60348 | 32049 ft | 437 kts | 253° |
| 2026-05-08 04:24 | 35.90020 | 141.56727 | 31551 ft | 438 kts | 253° |
| 2026-05-08 04:24 | 35.89229 | 141.53142 | 31067 ft | 440 kts | 253° |
| 2026-05-08 04:25 | 35.88421 | 141.49503 | 30582 ft | 441 kts | 252° |
| 2026-05-08 04:25 | 35.87607 | 141.45851 | 30116 ft | 442 kts | 252° |
| 2026-05-08 04:25 | 35.86789 | 141.42195 | 29600 ft | 441 kts | 252° |
| 2026-05-08 04:25 | 35.85973 | 141.38559 | 29075 ft | 439 kts | 252° |
| 2026-05-08 04:26 | 35.85163 | 141.34951 | 28538 ft | 435 kts | 252° |
| 2026-05-08 04:26 | 35.84357 | 141.31367 | 28031 ft | 431 kts | 252° |
| 2026-05-08 04:26 | 35.83571 | 141.27880 | 27532 ft | 426 kts | 252° |
| 2026-05-08 04:26 | 35.82781 | 141.24377 | 27034 ft | 423 kts | 252° |
| 2026-05-08 04:27 | 35.81997 | 141.20908 | 26545 ft | 419 kts | 252° |
| 2026-05-08 04:27 | 35.81216 | 141.17460 | 26060 ft | 416 kts | 252° |
| 2026-05-08 04:27 | 35.80440 | 141.14042 | 25589 ft | 413 kts | 252° |
| 2026-05-08 04:27 | 35.79669 | 141.10643 | 25113 ft | 410 kts | 252° |
| 2026-05-08 04:28 | 35.78902 | 141.07275 | 24663 ft | 407 kts | 252° |
| 2026-05-08 04:28 | 35.78143 | 141.03939 | 24227 ft | 403 kts | 252° |
| 2026-05-08 04:28 | 35.77388 | 141.00627 | 23886 ft | 400 kts | 252° |
| 2026-05-08 04:28 | 35.76637 | 140.97337 | 23780 ft | 398 kts | 252° |
| 2026-05-08 04:29 | 35.75897 | 140.94102 | 23764 ft | 398 kts | 252° |
| 2026-05-08 04:29 | 35.75147 | 140.90829 | 23763 ft | 397 kts | 252° |
| 2026-05-08 04:29 | 35.74392 | 140.87561 | 23761 ft | 397 kts | 251° |
| 2026-05-08 04:29 | 35.73428 | 140.84391 | 23758 ft | 395 kts | 245° |
| 2026-05-08 04:30 | 35.72074 | 140.81457 | 23755 ft | 395 kts | 235° |
| 2026-05-08 04:30 | 35.70246 | 140.78938 | 23558 ft | 396 kts | 225° |
| 2026-05-08 04:30 | 35.68150 | 140.76727 | 23112 ft | 397 kts | 223° |
| 2026-05-08 04:30 | 35.66020 | 140.74586 | 22593 ft | 394 kts | 222° |
| 2026-05-08 04:31 | 35.63900 | 140.72460 | 22105 ft | 392 kts | 222° |
| 2026-05-08 04:31 | 35.61801 | 140.70346 | 21618 ft | 389 kts | 222° |
| 2026-05-08 04:31 | 35.59723 | 140.68243 | 21149 ft | 386 kts | 222° |
| 2026-05-08 04:31 | 35.57692 | 140.66177 | 20690 ft | 382 kts | 222° |
| 2026-05-08 04:32 | 35.55658 | 140.64096 | 20229 ft | 379 kts | 222° |
| 2026-05-08 04:32 | 35.53646 | 140.62016 | 19776 ft | 377 kts | 222° |
| 2026-05-08 04:32 | 35.51658 | 140.59946 | 19332 ft | 374 kts | 222° |
| 2026-05-08 04:32 | 35.49686 | 140.57879 | 18937 ft | 371 kts | 222° |
| 2026-05-08 04:33 | 35.47732 | 140.55820 | 18786 ft | 369 kts | 222° |
| 2026-05-08 04:33 | 35.45787 | 140.53767 | 18760 ft | 369 kts | 222° |
| 2026-05-08 04:33 | 35.43847 | 140.51717 | 18762 ft | 368 kts | 222° |
| 2026-05-08 04:33 | 35.41909 | 140.49671 | 18766 ft | 368 kts | 222° |
| 2026-05-08 04:34 | 35.39995 | 140.47650 | 18766 ft | 368 kts | 222° |
| 2026-05-08 04:34 | 35.38058 | 140.45605 | 18766 ft | 368 kts | 222° |
| 2026-05-08 04:34 | 35.36119 | 140.43558 | 18578 ft | 367 kts | 222° |
| 2026-05-08 04:34 | 35.34191 | 140.41514 | 18154 ft | 366 kts | 222° |
| 2026-05-08 04:35 | 35.32276 | 140.39475 | 17588 ft | 364 kts | 222° |
| 2026-05-08 04:35 | 35.30362 | 140.37465 | 17066 ft | 361 kts | 222° |
| 2026-05-08 04:35 | 35.28456 | 140.35474 | 16522 ft | 359 kts | 222° |
| 2026-05-08 04:35 | 35.26555 | 140.33497 | 16002 ft | 357 kts | 222° |
| 2026-05-08 04:36 | 35.24687 | 140.31561 | 15502 ft | 356 kts | 222° |
| 2026-05-08 04:36 | 35.22803 | 140.29620 | 15000 ft | 354 kts | 222° |
| 2026-05-08 04:36 | 35.20920 | 140.27687 | 14527 ft | 352 kts | 222° |
| 2026-05-08 04:36 | 35.19048 | 140.25767 | 14057 ft | 351 kts | 222° |
| 2026-05-08 04:37 | 35.17188 | 140.23850 | 13653 ft | 349 kts | 222° |
| 2026-05-08 04:37 | 35.15331 | 140.21942 | 13186 ft | 348 kts | 222° |
| 2026-05-08 04:37 | 35.13481 | 140.20043 | 12737 ft | 347 kts | 222° |
| 2026-05-08 04:37 | 35.11641 | 140.18147 | 12291 ft | 344 kts | 222° |
| 2026-05-08 04:38 | 35.09843 | 140.16242 | 11840 ft | 341 kts | 226° |
| 2026-05-08 04:38 | 35.08499 | 140.13891 | 11377 ft | 338 kts | 245° |
| 2026-05-08 04:38 | 35.07983 | 140.11169 | 10939 ft | 334 kts | 265° |
| 2026-05-08 04:38 | 35.08349 | 140.08379 | 10492 ft | 337 kts | 285° |
| 2026-05-08 04:39 | 35.09544 | 140.05937 | 9950 ft | 335 kts | 306° |
| 2026-05-08 04:39 | 35.11386 | 140.04235 | 9386 ft | 332 kts | 327° |
| 2026-05-08 04:39 | 35.13471 | 140.03128 | 8793 ft | 321 kts | 332° |
| 2026-05-08 04:39 | 35.15522 | 140.02171 | 8198 ft | 310 kts | 332° |
| 2026-05-08 04:40 | 35.17504 | 140.01250 | 7600 ft | 299 kts | 332° |
| 2026-05-08 04:40 | 35.19501 | 140.00593 | 7057 ft | 303 kts | 349° |
| 2026-05-08 04:40 | 35.21589 | 140.00897 | 6509 ft | 309 kts | 14° |
| 2026-05-08 04:40 | 35.23556 | 140.01905 | 6070 ft | 306 kts | 21° |
| 2026-05-08 04:41 | 35.25465 | 140.03041 | 5620 ft | 305 kts | 22° |
| 2026-05-08 04:41 | 35.27362 | 140.04183 | 5159 ft | 303 kts | 22° |
| 2026-05-08 04:41 | 35.29247 | 140.05312 | 4734 ft | 301 kts | 22° |
| 2026-05-08 04:41 | 35.31169 | 140.06252 | 4288 ft | 296 kts | 9° |
| 2026-05-08 04:42 | 35.33173 | 140.06436 | 3909 ft | 284 kts | 348° |
| 2026-05-08 04:42 | 35.35125 | 140.06055 | 3722 ft | 282 kts | 342° |
| 2026-05-08 04:42 | 35.37033 | 140.05566 | 3892 ft | 281 kts | 341° |
| 2026-05-08 04:42 | 35.38947 | 140.05059 | 4010 ft | 282 kts | 341° |
| 2026-05-08 04:43 | 35.40864 | 140.04542 | 4015 ft | 282 kts | 341° |
| 2026-05-08 04:43 | 35.42785 | 140.04017 | 4075 ft | 282 kts | 341° |
| 2026-05-08 04:43 | 35.44679 | 140.03497 | 4381 ft | 283 kts | 341° |
| 2026-05-08 04:43 | 35.46604 | 140.02964 | 4586 ft | 284 kts | 341° |
| 2026-05-08 04:44 | 35.48530 | 140.02431 | 4473 ft | 281 kts | 341° |
| 2026-05-08 04:44 | 35.50437 | 140.01903 | 4335 ft | 282 kts | 341° |
| 2026-05-08 04:44 | 35.52308 | 140.01388 | 4245 ft | 265 kts | 341° |
| 2026-05-08 04:44 | 35.54031 | 140.00921 | 4136 ft | 242 kts | 340° |
| 2026-05-08 04:45 | 35.55598 | 140.00495 | 4065 ft | 221 kts | 339° |
| 2026-05-08 04:45 | 35.57046 | 140.00095 | 3997 ft | 206 kts | 340° |
| 2026-05-08 04:45 | 35.58372 | 139.99724 | 3892 ft | 191 kts | 340° |
| 2026-05-08 04:45 | 35.59548 | 139.99187 | 3761 ft | 170 kts | 319° |
| 2026-05-08 04:46 | 35.60282 | 139.98198 | 3565 ft | 149 kts | 287° |
| 2026-05-08 04:46 | 35.60487 | 139.97021 | 3394 ft | 138 kts | 263° |
| 2026-05-08 04:46 | 35.60485 | 139.95844 | 3238 ft | 138 kts | 262° |
| 2026-05-08 04:46 | 35.60474 | 139.94663 | 3106 ft | 138 kts | 263° |
| 2026-05-08 04:47 | 35.60468 | 139.93483 | 2989 ft | 137 kts | 262° |
| 2026-05-08 04:47 | 35.60461 | 139.92346 | 2808 ft | 129 kts | 263° |
| 2026-05-08 04:47 | 35.60452 | 139.91267 | 2571 ft | 128 kts | 263° |
| 2026-05-08 04:47 | 35.60442 | 139.90161 | 2190 ft | 131 kts | 262° |
| 2026-05-08 04:48 | 35.60437 | 139.89065 | 2016 ft | 126 kts | 261° |
| 2026-05-08 04:48 | 35.60428 | 139.87976 | 1995 ft | 128 kts | 261° |
| 2026-05-08 04:48 | 35.60418 | 139.86864 | 1846 ft | 133 kts | 260° |
| 2026-05-08 04:48 | 35.60410 | 139.85716 | 1597 ft | 137 kts | 260° |
| 2026-05-08 04:49 | 35.60380 | 139.84499 | 1414 ft | 145 kts | 255° |
| 2026-05-08 04:49 | 35.59998 | 139.83340 | 1156 ft | 152 kts | 236° |
| 2026-05-08 04:49 | 35.59520 | 139.82169 | 1075 ft | 155 kts | 238° |
| 2026-05-08 04:49 | 35.59022 | 139.81002 | 889 ft | 159 kts | 239° |
| 2026-05-08 04:50 | 35.58521 | 139.79772 | 622 ft | 163 kts | 239° |
| 2026-05-08 04:50 | 35.57901 | 139.78714 | 426 ft | 145 kts | 213° |
| 2026-05-08 04:50 | 35.57107 | 139.78011 | 230 ft | 137 kts | 210° |
| 2026-05-08 04:50 | 35.56356 | 139.77365 | 49 ft | 125 kts | 211° |
| 2026-05-08 04:51 | 35.55701 | 139.76819 | 31 ft | 92 kts | 216° |
| 2026-05-08 04:51 | 35.55418 | 139.76572 | 31 ft | 15 kts | 214° |
| 2026-05-08 04:51 | 35.55329 | 139.76508 | 31 ft | 14 kts | 202° |
| 2026-05-08 04:51 | 35.55235 | 139.76475 | 31 ft | 14 kts | 193° |
| 2026-05-08 04:52 | 35.55133 | 139.76452 | 29 ft | 16 kts | 178° |
| 2026-05-08 04:52 | 35.55077 | 139.76529 | 29 ft | 11 kts | 88° |
| 2026-05-08 04:52 | 35.55034 | 139.76591 | 29 ft | 11 kts | 150° |
| 2026-05-08 04:52 | 35.54972 | 139.76647 | 29 ft | 11 kts | 125° |
| 2026-05-08 04:53 | 35.54978 | 139.76739 | 29 ft | 12 kts | 66° |
| 2026-05-08 04:53 | 35.54999 | 139.76791 | 29 ft | 3 kts | 61° |
| 2026-05-08 04:53 | 35.55012 | 139.76818 | 29 ft | 4 kts | 61° |
| 2026-05-08 04:53 | 35.55011 | 139.76848 | 29 ft | 3 kts | 113° |
| 2026-05-08 04:54 | 35.54997 | 139.76862 | 29 ft | 0 kts | 147° |
| 2026-05-08 04:54 | 35.54995 | 139.76863 | 29 ft | 2 kts | 150° |
| 2026-05-08 04:54 | 35.54975 | 139.76874 | 29 ft | 0 kts | 154° |
| 2026-05-08 04:55 | 35.54969 | 139.76878 | 29 ft | 3 kts | 154° |
| 2026-05-08 04:55 | 35.54965 | 139.76880 | 29 ft | 0 kts | 154° |